<?xml version="1.0" encoding="UTF-8" standalone="no" ?>
<gpx xmlns="http://www.topografix.com/GPX/1/1" xmlns:xsi="http://www.w3.org/2001/XMLSchema-instance" xsi:schemaLocation="http://www.topografix.com/GPX/1/1 http://www.topografix.com/GPX/1/1/gpx.xsd" version="1.1" creator="VisuGPX - https://www.visugpx.com">
  <metadata>
    <name>boucle autour d'Hautpoul via la passerelle de Mazamet(81)</name>
    <desc><![CDATA[boucle autour d'Hautpoul via la passerelle de Mazamet(81)]]></desc>
  </metadata>
  <trk>
    <name><![CDATA[2018-10-20 17:03:14]]></name>
    <trkseg>
      <trkpt lat="43.47504" lon="2.3776">
        <ele>455.32</ele>
        <time>2018-10-20T08:07:29Z</time>
      </trkpt>
      <trkpt lat="43.47503" lon="2.3776">
        <ele>466.38</ele>
        <time>2018-10-20T08:07:36Z</time>
      </trkpt>
      <trkpt lat="43.47504" lon="2.3776">
        <ele>473.59</ele>
        <time>2018-10-20T08:07:42Z</time>
      </trkpt>
      <trkpt lat="43.47504" lon="2.3776">
        <ele>476.95</ele>
        <time>2018-10-20T08:07:46Z</time>
      </trkpt>
      <trkpt lat="43.47504" lon="2.3776">
        <ele>483.2</ele>
        <time>2018-10-20T08:07:53Z</time>
      </trkpt>
      <trkpt lat="43.47511" lon="2.37764">
        <ele>488.97</ele>
        <time>2018-10-20T08:08:01Z</time>
      </trkpt>
      <trkpt lat="43.47512" lon="2.37764">
        <ele>489.45</ele>
        <time>2018-10-20T08:08:02Z</time>
      </trkpt>
      <trkpt lat="43.47518" lon="2.37767">
        <ele>492.81</ele>
        <time>2018-10-20T08:08:10Z</time>
      </trkpt>
      <trkpt lat="43.47522" lon="2.37763">
        <ele>496.18</ele>
        <time>2018-10-20T08:08:20Z</time>
      </trkpt>
      <trkpt lat="43.47523" lon="2.3777">
        <ele>501.46</ele>
        <time>2018-10-20T08:08:32Z</time>
      </trkpt>
      <trkpt lat="43.47524" lon="2.37771">
        <ele>500.02</ele>
        <time>2018-10-20T08:08:33Z</time>
      </trkpt>
      <trkpt lat="43.47528" lon="2.37774">
        <ele>504.35</ele>
        <time>2018-10-20T08:08:40Z</time>
      </trkpt>
      <trkpt lat="43.47525" lon="2.37775">
        <ele>503.87</ele>
        <time>2018-10-20T08:08:44Z</time>
      </trkpt>
      <trkpt lat="43.47524" lon="2.37777">
        <ele>505.31</ele>
        <time>2018-10-20T08:08:47Z</time>
      </trkpt>
      <trkpt lat="43.47522" lon="2.3778">
        <ele>508.67</ele>
        <time>2018-10-20T08:08:52Z</time>
      </trkpt>
      <trkpt lat="43.47523" lon="2.37781">
        <ele>506.75</ele>
        <time>2018-10-20T08:08:53Z</time>
      </trkpt>
      <trkpt lat="43.47523" lon="2.37791">
        <ele>507.23</ele>
        <time>2018-10-20T08:09:07Z</time>
      </trkpt>
      <trkpt lat="43.47528" lon="2.37798">
        <ele>507.71</ele>
        <time>2018-10-20T08:09:24Z</time>
      </trkpt>
      <trkpt lat="43.47531" lon="2.37795">
        <ele>511.56</ele>
        <time>2018-10-20T08:09:32Z</time>
      </trkpt>
      <trkpt lat="43.47531" lon="2.37795">
        <ele>508.19</ele>
        <time>2018-10-20T08:09:33Z</time>
      </trkpt>
      <trkpt lat="43.47531" lon="2.37795">
        <ele>513</ele>
        <time>2018-10-20T08:09:34Z</time>
      </trkpt>
      <trkpt lat="43.47532" lon="2.37794">
        <ele>509.16</ele>
        <time>2018-10-20T08:09:35Z</time>
      </trkpt>
      <trkpt lat="43.47532" lon="2.37794">
        <ele>512.52</ele>
        <time>2018-10-20T08:09:36Z</time>
      </trkpt>
      <trkpt lat="43.47539" lon="2.37794">
        <ele>513</ele>
        <time>2018-10-20T08:09:53Z</time>
      </trkpt>
      <trkpt lat="43.47539" lon="2.37794">
        <ele>516.37</ele>
        <time>2018-10-20T08:09:54Z</time>
      </trkpt>
      <trkpt lat="43.4754" lon="2.37793">
        <ele>512.04</ele>
        <time>2018-10-20T08:10:00Z</time>
      </trkpt>
      <trkpt lat="43.47539" lon="2.37793">
        <ele>518.29</ele>
        <time>2018-10-20T08:10:01Z</time>
      </trkpt>
      <trkpt lat="43.47537" lon="2.37786">
        <ele>514.92</ele>
        <time>2018-10-20T08:10:17Z</time>
      </trkpt>
      <trkpt lat="43.4754" lon="2.37784">
        <ele>515.4</ele>
        <time>2018-10-20T08:10:35Z</time>
      </trkpt>
      <trkpt lat="43.47541" lon="2.37786">
        <ele>515.4</ele>
        <time>2018-10-20T08:10:54Z</time>
      </trkpt>
      <trkpt lat="43.47541" lon="2.37794">
        <ele>515.4</ele>
        <time>2018-10-20T08:11:09Z</time>
      </trkpt>
      <trkpt lat="43.47542" lon="2.37796">
        <ele>514.44</ele>
        <time>2018-10-20T08:11:12Z</time>
      </trkpt>
      <trkpt lat="43.4754" lon="2.37802">
        <ele>513.96</ele>
        <time>2018-10-20T08:11:27Z</time>
      </trkpt>
      <trkpt lat="43.47539" lon="2.378">
        <ele>513.96</ele>
        <time>2018-10-20T08:11:50Z</time>
      </trkpt>
      <trkpt lat="43.47541" lon="2.37794">
        <ele>513.48</ele>
        <time>2018-10-20T08:12:04Z</time>
      </trkpt>
      <trkpt lat="43.4754" lon="2.37798">
        <ele>514.44</ele>
        <time>2018-10-20T08:12:15Z</time>
      </trkpt>
      <trkpt lat="43.47536" lon="2.378">
        <ele>512.04</ele>
        <time>2018-10-20T08:12:35Z</time>
      </trkpt>
      <trkpt lat="43.47536" lon="2.378">
        <ele>511.08</ele>
        <time>2018-10-20T08:12:37Z</time>
      </trkpt>
      <trkpt lat="43.47532" lon="2.37801">
        <ele>508.19</ele>
        <time>2018-10-20T08:12:50Z</time>
      </trkpt>
      <trkpt lat="43.47527" lon="2.37792">
        <ele>507.23</ele>
        <time>2018-10-20T08:13:06Z</time>
      </trkpt>
      <trkpt lat="43.47523" lon="2.37781">
        <ele>506.27</ele>
        <time>2018-10-20T08:13:20Z</time>
      </trkpt>
      <trkpt lat="43.47527" lon="2.37776">
        <ele>504.35</ele>
        <time>2018-10-20T08:13:31Z</time>
      </trkpt>
      <trkpt lat="43.47528" lon="2.37773">
        <ele>501.95</ele>
        <time>2018-10-20T08:13:38Z</time>
      </trkpt>
      <trkpt lat="43.47524" lon="2.37767">
        <ele>500.02</ele>
        <time>2018-10-20T08:13:46Z</time>
      </trkpt>
      <trkpt lat="43.47519" lon="2.37765">
        <ele>502.43</ele>
        <time>2018-10-20T08:14:01Z</time>
      </trkpt>
      <trkpt lat="43.47517" lon="2.37763">
        <ele>500.98</ele>
        <time>2018-10-20T08:15:29Z</time>
      </trkpt>
      <trkpt lat="43.47518" lon="2.37764">
        <ele>500.98</ele>
        <time>2018-10-20T08:15:51Z</time>
      </trkpt>
      <trkpt lat="43.47504" lon="2.3776">
        <ele>500.98</ele>
        <time>2018-10-20T08:16:05Z</time>
      </trkpt>
      <trkpt lat="43.475" lon="2.37765">
        <ele>501.46</ele>
        <time>2018-10-20T08:19:50Z</time>
      </trkpt>
      <trkpt lat="43.475" lon="2.37766">
        <ele>501.46</ele>
        <time>2018-10-20T08:19:53Z</time>
      </trkpt>
      <trkpt lat="43.47491" lon="2.37765">
        <ele>502.91</ele>
        <time>2018-10-20T08:20:21Z</time>
      </trkpt>
      <trkpt lat="43.47477" lon="2.37756">
        <ele>504.35</ele>
        <time>2018-10-20T08:20:49Z</time>
      </trkpt>
      <trkpt lat="43.47479" lon="2.37755">
        <ele>504.83</ele>
        <time>2018-10-20T08:21:09Z</time>
      </trkpt>
      <trkpt lat="43.47471" lon="2.37753">
        <ele>506.27</ele>
        <time>2018-10-20T08:21:31Z</time>
      </trkpt>
      <trkpt lat="43.47463" lon="2.3776">
        <ele>509.16</ele>
        <time>2018-10-20T08:21:55Z</time>
      </trkpt>
      <trkpt lat="43.47434" lon="2.37762">
        <ele>515.4</ele>
        <time>2018-10-20T08:23:08Z</time>
      </trkpt>
      <trkpt lat="43.47426" lon="2.37754">
        <ele>504.35</ele>
        <time>2018-10-20T08:23:17Z</time>
      </trkpt>
      <trkpt lat="43.47425" lon="2.37754">
        <ele>515.4</ele>
        <time>2018-10-20T08:23:18Z</time>
      </trkpt>
      <trkpt lat="43.47414" lon="2.37743">
        <ele>523.09</ele>
        <time>2018-10-20T08:24:54Z</time>
      </trkpt>
      <trkpt lat="43.47402" lon="2.37735">
        <ele>524.06</ele>
        <time>2018-10-20T08:25:26Z</time>
      </trkpt>
      <trkpt lat="43.47389" lon="2.37727">
        <ele>527.42</ele>
        <time>2018-10-20T08:25:46Z</time>
      </trkpt>
      <trkpt lat="43.47388" lon="2.37726">
        <ele>527.9</ele>
        <time>2018-10-20T08:26:04Z</time>
      </trkpt>
      <trkpt lat="43.47379" lon="2.37722">
        <ele>529.82</ele>
        <time>2018-10-20T08:26:27Z</time>
      </trkpt>
      <trkpt lat="43.47341" lon="2.3772">
        <ele>536.07</ele>
        <time>2018-10-20T08:35:25Z</time>
      </trkpt>
      <trkpt lat="43.47325" lon="2.3772">
        <ele>537.03</ele>
        <time>2018-10-20T08:35:46Z</time>
      </trkpt>
      <trkpt lat="43.47307" lon="2.37724">
        <ele>538.96</ele>
        <time>2018-10-20T08:36:06Z</time>
      </trkpt>
      <trkpt lat="43.4729" lon="2.37729">
        <ele>539.92</ele>
        <time>2018-10-20T08:36:28Z</time>
      </trkpt>
      <trkpt lat="43.4727" lon="2.37731">
        <ele>542.32</ele>
        <time>2018-10-20T08:36:47Z</time>
      </trkpt>
      <trkpt lat="43.47259" lon="2.37736">
        <ele>543.76</ele>
        <time>2018-10-20T08:37:06Z</time>
      </trkpt>
      <trkpt lat="43.47244" lon="2.37745">
        <ele>545.2</ele>
        <time>2018-10-20T08:37:24Z</time>
      </trkpt>
      <trkpt lat="43.47231" lon="2.37752">
        <ele>546.17</ele>
        <time>2018-10-20T08:37:41Z</time>
      </trkpt>
      <trkpt lat="43.47215" lon="2.37754">
        <ele>547.61</ele>
        <time>2018-10-20T08:37:58Z</time>
      </trkpt>
      <trkpt lat="43.47197" lon="2.37758">
        <ele>549.05</ele>
        <time>2018-10-20T08:38:16Z</time>
      </trkpt>
      <trkpt lat="43.47176" lon="2.37761">
        <ele>549.53</ele>
        <time>2018-10-20T08:38:39Z</time>
      </trkpt>
      <trkpt lat="43.47156" lon="2.37769">
        <ele>550.97</ele>
        <time>2018-10-20T08:39:02Z</time>
      </trkpt>
      <trkpt lat="43.47139" lon="2.37777">
        <ele>550.97</ele>
        <time>2018-10-20T08:39:23Z</time>
      </trkpt>
      <trkpt lat="43.47124" lon="2.37784">
        <ele>549.53</ele>
        <time>2018-10-20T08:39:47Z</time>
      </trkpt>
      <trkpt lat="43.47123" lon="2.37784">
        <ele>552.9</ele>
        <time>2018-10-20T08:39:50Z</time>
      </trkpt>
      <trkpt lat="43.47108" lon="2.37793">
        <ele>553.38</ele>
        <time>2018-10-20T08:40:11Z</time>
      </trkpt>
      <trkpt lat="43.47092" lon="2.37806">
        <ele>554.82</ele>
        <time>2018-10-20T08:40:35Z</time>
      </trkpt>
      <trkpt lat="43.47071" lon="2.37818">
        <ele>555.78</ele>
        <time>2018-10-20T08:40:58Z</time>
      </trkpt>
      <trkpt lat="43.47055" lon="2.3783">
        <ele>557.7</ele>
        <time>2018-10-20T08:41:23Z</time>
      </trkpt>
      <trkpt lat="43.47037" lon="2.37841">
        <ele>558.66</ele>
        <time>2018-10-20T08:41:46Z</time>
      </trkpt>
      <trkpt lat="43.47017" lon="2.37852">
        <ele>560.11</ele>
        <time>2018-10-20T08:42:09Z</time>
      </trkpt>
      <trkpt lat="43.47" lon="2.37854">
        <ele>561.07</ele>
        <time>2018-10-20T08:42:34Z</time>
      </trkpt>
      <trkpt lat="43.4698" lon="2.37858">
        <ele>564.43</ele>
        <time>2018-10-20T08:43:00Z</time>
      </trkpt>
      <trkpt lat="43.46964" lon="2.37865">
        <ele>566.35</ele>
        <time>2018-10-20T08:43:24Z</time>
      </trkpt>
      <trkpt lat="43.46949" lon="2.37872">
        <ele>569.24</ele>
        <time>2018-10-20T08:43:47Z</time>
      </trkpt>
      <trkpt lat="43.46941" lon="2.37874">
        <ele>571.16</ele>
        <time>2018-10-20T08:44:08Z</time>
      </trkpt>
      <trkpt lat="43.46929" lon="2.37877">
        <ele>573.56</ele>
        <time>2018-10-20T08:44:34Z</time>
      </trkpt>
      <trkpt lat="43.46925" lon="2.3788">
        <ele>575.01</ele>
        <time>2018-10-20T08:44:58Z</time>
      </trkpt>
      <trkpt lat="43.46915" lon="2.37891">
        <ele>577.89</ele>
        <time>2018-10-20T08:45:15Z</time>
      </trkpt>
      <trkpt lat="43.46908" lon="2.37908">
        <ele>580.77</ele>
        <time>2018-10-20T08:45:37Z</time>
      </trkpt>
      <trkpt lat="43.46902" lon="2.37913">
        <ele>580.77</ele>
        <time>2018-10-20T08:45:56Z</time>
      </trkpt>
      <trkpt lat="43.46901" lon="2.37912">
        <ele>579.81</ele>
        <time>2018-10-20T08:46:19Z</time>
      </trkpt>
      <trkpt lat="43.46898" lon="2.37916">
        <ele>582.22</ele>
        <time>2018-10-20T08:47:21Z</time>
      </trkpt>
      <trkpt lat="43.46882" lon="2.37909">
        <ele>584.62</ele>
        <time>2018-10-20T08:47:41Z</time>
      </trkpt>
      <trkpt lat="43.46867" lon="2.37908">
        <ele>587.5</ele>
        <time>2018-10-20T08:48:00Z</time>
      </trkpt>
      <trkpt lat="43.4686" lon="2.37912">
        <ele>590.39</ele>
        <time>2018-10-20T08:48:18Z</time>
      </trkpt>
      <trkpt lat="43.4685" lon="2.3792">
        <ele>592.79</ele>
        <time>2018-10-20T08:48:38Z</time>
      </trkpt>
      <trkpt lat="43.46838" lon="2.37925">
        <ele>595.67</ele>
        <time>2018-10-20T08:48:56Z</time>
      </trkpt>
      <trkpt lat="43.46832" lon="2.37935">
        <ele>597.6</ele>
        <time>2018-10-20T08:49:13Z</time>
      </trkpt>
      <trkpt lat="43.46827" lon="2.37939">
        <ele>599.04</ele>
        <time>2018-10-20T08:49:30Z</time>
      </trkpt>
      <trkpt lat="43.46824" lon="2.37937">
        <ele>600</ele>
        <time>2018-10-20T08:49:50Z</time>
      </trkpt>
      <trkpt lat="43.46803" lon="2.37947">
        <ele>601.92</ele>
        <time>2018-10-20T08:50:11Z</time>
      </trkpt>
      <trkpt lat="43.46799" lon="2.37946">
        <ele>603.36</ele>
        <time>2018-10-20T08:50:30Z</time>
      </trkpt>
      <trkpt lat="43.46785" lon="2.37959">
        <ele>605.77</ele>
        <time>2018-10-20T08:50:51Z</time>
      </trkpt>
      <trkpt lat="43.46769" lon="2.37963">
        <ele>608.65</ele>
        <time>2018-10-20T08:51:12Z</time>
      </trkpt>
      <trkpt lat="43.46754" lon="2.37963">
        <ele>611.06</ele>
        <time>2018-10-20T08:51:32Z</time>
      </trkpt>
      <trkpt lat="43.46736" lon="2.37965">
        <ele>612.98</ele>
        <time>2018-10-20T08:51:56Z</time>
      </trkpt>
      <trkpt lat="43.46722" lon="2.37967">
        <ele>614.9</ele>
        <time>2018-10-20T08:52:16Z</time>
      </trkpt>
      <trkpt lat="43.46707" lon="2.37961">
        <ele>616.82</ele>
        <time>2018-10-20T08:52:36Z</time>
      </trkpt>
      <trkpt lat="43.46701" lon="2.37959">
        <ele>617.78</ele>
        <time>2018-10-20T08:52:52Z</time>
      </trkpt>
      <trkpt lat="43.46691" lon="2.37953">
        <ele>618.75</ele>
        <time>2018-10-20T08:53:14Z</time>
      </trkpt>
      <trkpt lat="43.46681" lon="2.37949">
        <ele>620.67</ele>
        <time>2018-10-20T08:53:30Z</time>
      </trkpt>
      <trkpt lat="43.46672" lon="2.37947">
        <ele>622.59</ele>
        <time>2018-10-20T08:53:46Z</time>
      </trkpt>
      <trkpt lat="43.46663" lon="2.37942">
        <ele>624.51</ele>
        <time>2018-10-20T08:54:20Z</time>
      </trkpt>
      <trkpt lat="43.46652" lon="2.37936">
        <ele>626.92</ele>
        <time>2018-10-20T08:54:36Z</time>
      </trkpt>
      <trkpt lat="43.46642" lon="2.37933">
        <ele>628.36</ele>
        <time>2018-10-20T08:54:51Z</time>
      </trkpt>
      <trkpt lat="43.46633" lon="2.3793">
        <ele>630.76</ele>
        <time>2018-10-20T08:55:07Z</time>
      </trkpt>
      <trkpt lat="43.46625" lon="2.37928">
        <ele>632.2</ele>
        <time>2018-10-20T08:55:33Z</time>
      </trkpt>
      <trkpt lat="43.46613" lon="2.37926">
        <ele>634.13</ele>
        <time>2018-10-20T08:55:48Z</time>
      </trkpt>
      <trkpt lat="43.46598" lon="2.37921">
        <ele>636.05</ele>
        <time>2018-10-20T08:56:06Z</time>
      </trkpt>
      <trkpt lat="43.46586" lon="2.3792">
        <ele>638.45</ele>
        <time>2018-10-20T08:56:24Z</time>
      </trkpt>
      <trkpt lat="43.46572" lon="2.37919">
        <ele>640.38</ele>
        <time>2018-10-20T08:56:41Z</time>
      </trkpt>
      <trkpt lat="43.4656" lon="2.37921">
        <ele>641.82</ele>
        <time>2018-10-20T08:56:57Z</time>
      </trkpt>
      <trkpt lat="43.46551" lon="2.37919">
        <ele>642.78</ele>
        <time>2018-10-20T08:58:45Z</time>
      </trkpt>
      <trkpt lat="43.46539" lon="2.37927">
        <ele>644.22</ele>
        <time>2018-10-20T08:58:58Z</time>
      </trkpt>
      <trkpt lat="43.46522" lon="2.37932">
        <ele>644.22</ele>
        <time>2018-10-20T08:59:15Z</time>
      </trkpt>
      <trkpt lat="43.46502" lon="2.37936">
        <ele>642.78</ele>
        <time>2018-10-20T08:59:30Z</time>
      </trkpt>
      <trkpt lat="43.46464" lon="2.37923">
        <ele>639.41</ele>
        <time>2018-10-20T09:00:03Z</time>
      </trkpt>
      <trkpt lat="43.46449" lon="2.37915">
        <ele>637.01</ele>
        <time>2018-10-20T09:00:19Z</time>
      </trkpt>
      <trkpt lat="43.46431" lon="2.37914">
        <ele>633.65</ele>
        <time>2018-10-20T09:00:41Z</time>
      </trkpt>
      <trkpt lat="43.46417" lon="2.37913">
        <ele>631.72</ele>
        <time>2018-10-20T09:00:55Z</time>
      </trkpt>
      <trkpt lat="43.46401" lon="2.37911">
        <ele>629.8</ele>
        <time>2018-10-20T09:01:07Z</time>
      </trkpt>
      <trkpt lat="43.464" lon="2.37912">
        <ele>629.8</ele>
        <time>2018-10-20T09:01:08Z</time>
      </trkpt>
      <trkpt lat="43.46385" lon="2.37909">
        <ele>627.4</ele>
        <time>2018-10-20T09:01:23Z</time>
      </trkpt>
      <trkpt lat="43.46369" lon="2.37907">
        <ele>625.47</ele>
        <time>2018-10-20T09:01:37Z</time>
      </trkpt>
      <trkpt lat="43.46359" lon="2.37907">
        <ele>624.03</ele>
        <time>2018-10-20T09:01:49Z</time>
      </trkpt>
      <trkpt lat="43.46344" lon="2.37909">
        <ele>621.63</ele>
        <time>2018-10-20T09:02:06Z</time>
      </trkpt>
      <trkpt lat="43.4633" lon="2.3791">
        <ele>619.71</ele>
        <time>2018-10-20T09:02:21Z</time>
      </trkpt>
      <trkpt lat="43.46319" lon="2.37914">
        <ele>618.26</ele>
        <time>2018-10-20T09:02:35Z</time>
      </trkpt>
      <trkpt lat="43.4631" lon="2.3792">
        <ele>617.3</ele>
        <time>2018-10-20T09:02:48Z</time>
      </trkpt>
      <trkpt lat="43.46301" lon="2.37928">
        <ele>615.38</ele>
        <time>2018-10-20T09:03:05Z</time>
      </trkpt>
      <trkpt lat="43.46293" lon="2.37933">
        <ele>614.9</ele>
        <time>2018-10-20T09:03:19Z</time>
      </trkpt>
      <trkpt lat="43.46289" lon="2.37939">
        <ele>614.9</ele>
        <time>2018-10-20T09:03:37Z</time>
      </trkpt>
      <trkpt lat="43.46275" lon="2.37956">
        <ele>614.9</ele>
        <time>2018-10-20T09:03:52Z</time>
      </trkpt>
      <trkpt lat="43.46262" lon="2.3797">
        <ele>614.42</ele>
        <time>2018-10-20T09:04:07Z</time>
      </trkpt>
      <trkpt lat="43.46249" lon="2.37987">
        <ele>614.42</ele>
        <time>2018-10-20T09:04:23Z</time>
      </trkpt>
      <trkpt lat="43.46236" lon="2.38002">
        <ele>614.42</ele>
        <time>2018-10-20T09:04:38Z</time>
      </trkpt>
      <trkpt lat="43.46223" lon="2.38019">
        <ele>613.94</ele>
        <time>2018-10-20T09:04:56Z</time>
      </trkpt>
      <trkpt lat="43.4621" lon="2.38035">
        <ele>613.94</ele>
        <time>2018-10-20T09:05:10Z</time>
      </trkpt>
      <trkpt lat="43.462" lon="2.3805">
        <ele>614.42</ele>
        <time>2018-10-20T09:05:25Z</time>
      </trkpt>
      <trkpt lat="43.46197" lon="2.38067">
        <ele>614.9</ele>
        <time>2018-10-20T09:05:40Z</time>
      </trkpt>
      <trkpt lat="43.46196" lon="2.38087">
        <ele>616.34</ele>
        <time>2018-10-20T09:10:44Z</time>
      </trkpt>
      <trkpt lat="43.46207" lon="2.3808">
        <ele>616.82</ele>
        <time>2018-10-20T09:11:06Z</time>
      </trkpt>
      <trkpt lat="43.46211" lon="2.38077">
        <ele>616.82</ele>
        <time>2018-10-20T09:11:11Z</time>
      </trkpt>
      <trkpt lat="43.46224" lon="2.3807">
        <ele>617.3</ele>
        <time>2018-10-20T09:11:27Z</time>
      </trkpt>
      <trkpt lat="43.46228" lon="2.38067">
        <ele>618.26</ele>
        <time>2018-10-20T09:11:34Z</time>
      </trkpt>
      <trkpt lat="43.4624" lon="2.38061">
        <ele>618.75</ele>
        <time>2018-10-20T09:11:50Z</time>
      </trkpt>
      <trkpt lat="43.46251" lon="2.38061">
        <ele>619.71</ele>
        <time>2018-10-20T09:12:04Z</time>
      </trkpt>
      <trkpt lat="43.46265" lon="2.38062">
        <ele>620.67</ele>
        <time>2018-10-20T09:12:18Z</time>
      </trkpt>
      <trkpt lat="43.46266" lon="2.38063">
        <ele>620.67</ele>
        <time>2018-10-20T09:12:19Z</time>
      </trkpt>
      <trkpt lat="43.46276" lon="2.38069">
        <ele>620.19</ele>
        <time>2018-10-20T09:12:35Z</time>
      </trkpt>
      <trkpt lat="43.46291" lon="2.38078">
        <ele>620.19</ele>
        <time>2018-10-20T09:12:51Z</time>
      </trkpt>
      <trkpt lat="43.46305" lon="2.38087">
        <ele>620.19</ele>
        <time>2018-10-20T09:13:07Z</time>
      </trkpt>
      <trkpt lat="43.46314" lon="2.38093">
        <ele>620.67</ele>
        <time>2018-10-20T09:13:17Z</time>
      </trkpt>
      <trkpt lat="43.46325" lon="2.38104">
        <ele>621.63</ele>
        <time>2018-10-20T09:13:31Z</time>
      </trkpt>
      <trkpt lat="43.46335" lon="2.38114">
        <ele>622.59</ele>
        <time>2018-10-20T09:13:46Z</time>
      </trkpt>
      <trkpt lat="43.46342" lon="2.38123">
        <ele>624.03</ele>
        <time>2018-10-20T09:14:00Z</time>
      </trkpt>
      <trkpt lat="43.46352" lon="2.38134">
        <ele>625.47</ele>
        <time>2018-10-20T09:14:15Z</time>
      </trkpt>
      <trkpt lat="43.46364" lon="2.3814">
        <ele>626.92</ele>
        <time>2018-10-20T09:14:30Z</time>
      </trkpt>
      <trkpt lat="43.46376" lon="2.38139">
        <ele>627.88</ele>
        <time>2018-10-20T09:14:46Z</time>
      </trkpt>
      <trkpt lat="43.4639" lon="2.38138">
        <ele>628.84</ele>
        <time>2018-10-20T09:15:03Z</time>
      </trkpt>
      <trkpt lat="43.46404" lon="2.38143">
        <ele>629.8</ele>
        <time>2018-10-20T09:15:19Z</time>
      </trkpt>
      <trkpt lat="43.46418" lon="2.38152">
        <ele>631.24</ele>
        <time>2018-10-20T09:15:35Z</time>
      </trkpt>
      <trkpt lat="43.46432" lon="2.38159">
        <ele>632.2</ele>
        <time>2018-10-20T09:15:49Z</time>
      </trkpt>
      <trkpt lat="43.46448" lon="2.38176">
        <ele>633.17</ele>
        <time>2018-10-20T09:16:04Z</time>
      </trkpt>
      <trkpt lat="43.46461" lon="2.38184">
        <ele>633.65</ele>
        <time>2018-10-20T09:16:20Z</time>
      </trkpt>
      <trkpt lat="43.46475" lon="2.38182">
        <ele>634.13</ele>
        <time>2018-10-20T09:16:34Z</time>
      </trkpt>
      <trkpt lat="43.46494" lon="2.38178">
        <ele>634.61</ele>
        <time>2018-10-20T09:16:52Z</time>
      </trkpt>
      <trkpt lat="43.46506" lon="2.38175">
        <ele>635.09</ele>
        <time>2018-10-20T09:17:06Z</time>
      </trkpt>
      <trkpt lat="43.4652" lon="2.38171">
        <ele>636.05</ele>
        <time>2018-10-20T09:17:18Z</time>
      </trkpt>
      <trkpt lat="43.46537" lon="2.38168">
        <ele>636.05</ele>
        <time>2018-10-20T09:17:32Z</time>
      </trkpt>
      <trkpt lat="43.46554" lon="2.3816">
        <ele>636.05</ele>
        <time>2018-10-20T09:17:47Z</time>
      </trkpt>
      <trkpt lat="43.46568" lon="2.38148">
        <ele>637.49</ele>
        <time>2018-10-20T09:18:05Z</time>
      </trkpt>
      <trkpt lat="43.46583" lon="2.38136">
        <ele>637.01</ele>
        <time>2018-10-20T09:18:20Z</time>
      </trkpt>
      <trkpt lat="43.46591" lon="2.38127">
        <ele>637.49</ele>
        <time>2018-10-20T09:18:32Z</time>
      </trkpt>
      <trkpt lat="43.46601" lon="2.38112">
        <ele>637.97</ele>
        <time>2018-10-20T09:18:47Z</time>
      </trkpt>
      <trkpt lat="43.4661" lon="2.38101">
        <ele>638.45</ele>
        <time>2018-10-20T09:19:03Z</time>
      </trkpt>
      <trkpt lat="43.46622" lon="2.38096">
        <ele>638.45</ele>
        <time>2018-10-20T09:19:19Z</time>
      </trkpt>
      <trkpt lat="43.46637" lon="2.38097">
        <ele>638.93</ele>
        <time>2018-10-20T09:19:35Z</time>
      </trkpt>
      <trkpt lat="43.46649" lon="2.38097">
        <ele>639.41</ele>
        <time>2018-10-20T09:19:48Z</time>
      </trkpt>
      <trkpt lat="43.46666" lon="2.38095">
        <ele>640.38</ele>
        <time>2018-10-20T09:20:05Z</time>
      </trkpt>
      <trkpt lat="43.46683" lon="2.38095">
        <ele>639.41</ele>
        <time>2018-10-20T09:20:19Z</time>
      </trkpt>
      <trkpt lat="43.46704" lon="2.38098">
        <ele>639.41</ele>
        <time>2018-10-20T09:20:37Z</time>
      </trkpt>
      <trkpt lat="43.4672" lon="2.38107">
        <ele>639.41</ele>
        <time>2018-10-20T09:20:50Z</time>
      </trkpt>
      <trkpt lat="43.4673" lon="2.38124">
        <ele>639.89</ele>
        <time>2018-10-20T09:21:05Z</time>
      </trkpt>
      <trkpt lat="43.46737" lon="2.38146">
        <ele>639.41</ele>
        <time>2018-10-20T09:21:20Z</time>
      </trkpt>
      <trkpt lat="43.4674" lon="2.38167">
        <ele>638.93</ele>
        <time>2018-10-20T09:21:34Z</time>
      </trkpt>
      <trkpt lat="43.46743" lon="2.38189">
        <ele>637.49</ele>
        <time>2018-10-20T09:21:50Z</time>
      </trkpt>
      <trkpt lat="43.46746" lon="2.38205">
        <ele>637.49</ele>
        <time>2018-10-20T09:22:01Z</time>
      </trkpt>
      <trkpt lat="43.46755" lon="2.38222">
        <ele>637.01</ele>
        <time>2018-10-20T09:22:17Z</time>
      </trkpt>
      <trkpt lat="43.46767" lon="2.38234">
        <ele>637.49</ele>
        <time>2018-10-20T09:22:32Z</time>
      </trkpt>
      <trkpt lat="43.46777" lon="2.38246">
        <ele>637.01</ele>
        <time>2018-10-20T09:22:47Z</time>
      </trkpt>
      <trkpt lat="43.46788" lon="2.38262">
        <ele>637.49</ele>
        <time>2018-10-20T09:23:03Z</time>
      </trkpt>
      <trkpt lat="43.46794" lon="2.38271">
        <ele>637.01</ele>
        <time>2018-10-20T09:23:15Z</time>
      </trkpt>
      <trkpt lat="43.46802" lon="2.38286">
        <ele>635.57</ele>
        <time>2018-10-20T09:23:30Z</time>
      </trkpt>
      <trkpt lat="43.46809" lon="2.38301">
        <ele>635.09</ele>
        <time>2018-10-20T09:23:45Z</time>
      </trkpt>
      <trkpt lat="43.46816" lon="2.38319">
        <ele>634.13</ele>
        <time>2018-10-20T09:24:01Z</time>
      </trkpt>
      <trkpt lat="43.46824" lon="2.38336">
        <ele>632.2</ele>
        <time>2018-10-20T09:24:16Z</time>
      </trkpt>
      <trkpt lat="43.46831" lon="2.38352">
        <ele>631.24</ele>
        <time>2018-10-20T09:24:29Z</time>
      </trkpt>
      <trkpt lat="43.46838" lon="2.38365">
        <ele>629.32</ele>
        <time>2018-10-20T09:24:42Z</time>
      </trkpt>
      <trkpt lat="43.46845" lon="2.38373">
        <ele>627.88</ele>
        <time>2018-10-20T09:24:59Z</time>
      </trkpt>
      <trkpt lat="43.46849" lon="2.38381">
        <ele>626.92</ele>
        <time>2018-10-20T09:25:13Z</time>
      </trkpt>
      <trkpt lat="43.46862" lon="2.38398">
        <ele>624.03</ele>
        <time>2018-10-20T09:25:30Z</time>
      </trkpt>
      <trkpt lat="43.4687" lon="2.38411">
        <ele>622.11</ele>
        <time>2018-10-20T09:25:44Z</time>
      </trkpt>
      <trkpt lat="43.4688" lon="2.38428">
        <ele>619.71</ele>
        <time>2018-10-20T09:26:03Z</time>
      </trkpt>
      <trkpt lat="43.4689" lon="2.38443">
        <ele>617.78</ele>
        <time>2018-10-20T09:26:20Z</time>
      </trkpt>
      <trkpt lat="43.46895" lon="2.38451">
        <ele>615.86</ele>
        <time>2018-10-20T09:26:36Z</time>
      </trkpt>
      <trkpt lat="43.46904" lon="2.38462">
        <ele>613.94</ele>
        <time>2018-10-20T09:26:51Z</time>
      </trkpt>
      <trkpt lat="43.46913" lon="2.38476">
        <ele>611.06</ele>
        <time>2018-10-20T09:27:09Z</time>
      </trkpt>
      <trkpt lat="43.4692" lon="2.38487">
        <ele>609.13</ele>
        <time>2018-10-20T09:27:26Z</time>
      </trkpt>
      <trkpt lat="43.46929" lon="2.38499">
        <ele>607.21</ele>
        <time>2018-10-20T09:27:42Z</time>
      </trkpt>
      <trkpt lat="43.46935" lon="2.38508">
        <ele>605.29</ele>
        <time>2018-10-20T09:27:56Z</time>
      </trkpt>
      <trkpt lat="43.46942" lon="2.38519">
        <ele>603.36</ele>
        <time>2018-10-20T09:28:11Z</time>
      </trkpt>
      <trkpt lat="43.46948" lon="2.3853">
        <ele>600.96</ele>
        <time>2018-10-20T09:28:25Z</time>
      </trkpt>
      <trkpt lat="43.4696" lon="2.38545">
        <ele>598.08</ele>
        <time>2018-10-20T09:28:43Z</time>
      </trkpt>
      <trkpt lat="43.46968" lon="2.38559">
        <ele>596.64</ele>
        <time>2018-10-20T09:29:54Z</time>
      </trkpt>
      <trkpt lat="43.46972" lon="2.38561">
        <ele>596.64</ele>
        <time>2018-10-20T09:30:20Z</time>
      </trkpt>
      <trkpt lat="43.46972" lon="2.38561">
        <ele>596.64</ele>
        <time>2018-10-20T09:30:39Z</time>
      </trkpt>
      <trkpt lat="43.46981" lon="2.38569">
        <ele>596.64</ele>
        <time>2018-10-20T09:32:32Z</time>
      </trkpt>
      <trkpt lat="43.46984" lon="2.38566">
        <ele>596.64</ele>
        <time>2018-10-20T09:32:36Z</time>
      </trkpt>
      <trkpt lat="43.46993" lon="2.38553">
        <ele>596.15</ele>
        <time>2018-10-20T09:32:51Z</time>
      </trkpt>
      <trkpt lat="43.46993" lon="2.38536">
        <ele>595.67</ele>
        <time>2018-10-20T09:33:09Z</time>
      </trkpt>
      <trkpt lat="43.46998" lon="2.38529">
        <ele>595.19</ele>
        <time>2018-10-20T09:33:29Z</time>
      </trkpt>
      <trkpt lat="43.47006" lon="2.38522">
        <ele>592.79</ele>
        <time>2018-10-20T09:33:44Z</time>
      </trkpt>
      <trkpt lat="43.47012" lon="2.38511">
        <ele>589.91</ele>
        <time>2018-10-20T09:34:00Z</time>
      </trkpt>
      <trkpt lat="43.47021" lon="2.38504">
        <ele>587.02</ele>
        <time>2018-10-20T09:34:20Z</time>
      </trkpt>
      <trkpt lat="43.47028" lon="2.38496">
        <ele>584.14</ele>
        <time>2018-10-20T09:34:37Z</time>
      </trkpt>
      <trkpt lat="43.47038" lon="2.38486">
        <ele>580.77</ele>
        <time>2018-10-20T09:35:11Z</time>
      </trkpt>
      <trkpt lat="43.47043" lon="2.38477">
        <ele>578.37</ele>
        <time>2018-10-20T09:35:25Z</time>
      </trkpt>
      <trkpt lat="43.47048" lon="2.38473">
        <ele>576.93</ele>
        <time>2018-10-20T09:35:44Z</time>
      </trkpt>
      <trkpt lat="43.47056" lon="2.38461">
        <ele>575.49</ele>
        <time>2018-10-20T09:36:53Z</time>
      </trkpt>
      <trkpt lat="43.47061" lon="2.38457">
        <ele>573.08</ele>
        <time>2018-10-20T09:37:06Z</time>
      </trkpt>
      <trkpt lat="43.47067" lon="2.38449">
        <ele>570.2</ele>
        <time>2018-10-20T09:37:25Z</time>
      </trkpt>
      <trkpt lat="43.47075" lon="2.38442">
        <ele>567.8</ele>
        <time>2018-10-20T09:37:43Z</time>
      </trkpt>
      <trkpt lat="43.47108" lon="2.3842">
        <ele>554.82</ele>
        <time>2018-10-20T09:39:36Z</time>
      </trkpt>
      <trkpt lat="43.47117" lon="2.38418">
        <ele>551.93</ele>
        <time>2018-10-20T09:39:52Z</time>
      </trkpt>
      <trkpt lat="43.47121" lon="2.38413">
        <ele>549.05</ele>
        <time>2018-10-20T09:40:26Z</time>
      </trkpt>
      <trkpt lat="43.47125" lon="2.38411">
        <ele>546.65</ele>
        <time>2018-10-20T09:40:43Z</time>
      </trkpt>
      <trkpt lat="43.4713" lon="2.38409">
        <ele>545.2</ele>
        <time>2018-10-20T09:41:45Z</time>
      </trkpt>
      <trkpt lat="43.47141" lon="2.38385">
        <ele>540.88</ele>
        <time>2018-10-20T09:43:38Z</time>
      </trkpt>
      <trkpt lat="43.47153" lon="2.38371">
        <ele>537.51</ele>
        <time>2018-10-20T09:44:48Z</time>
      </trkpt>
      <trkpt lat="43.47177" lon="2.3834">
        <ele>534.63</ele>
        <time>2018-10-20T09:45:24Z</time>
      </trkpt>
      <trkpt lat="43.47192" lon="2.3832">
        <ele>532.71</ele>
        <time>2018-10-20T09:45:49Z</time>
      </trkpt>
      <trkpt lat="43.47295" lon="2.3805">
        <ele>508.67</ele>
        <time>2018-10-20T09:50:57Z</time>
      </trkpt>
      <trkpt lat="43.473" lon="2.38043">
        <ele>508.19</ele>
        <time>2018-10-20T09:51:21Z</time>
      </trkpt>
      <trkpt lat="43.47314" lon="2.38037">
        <ele>506.27</ele>
        <time>2018-10-20T09:51:40Z</time>
      </trkpt>
      <trkpt lat="43.47324" lon="2.38028">
        <ele>505.31</ele>
        <time>2018-10-20T09:51:55Z</time>
      </trkpt>
      <trkpt lat="43.47336" lon="2.38021">
        <ele>504.83</ele>
        <time>2018-10-20T09:52:13Z</time>
      </trkpt>
      <trkpt lat="43.4735" lon="2.38006">
        <ele>503.39</ele>
        <time>2018-10-20T09:52:32Z</time>
      </trkpt>
      <trkpt lat="43.47355" lon="2.37997">
        <ele>501.46</ele>
        <time>2018-10-20T09:52:49Z</time>
      </trkpt>
      <trkpt lat="43.47383" lon="2.37964">
        <ele>502.91</ele>
        <time>2018-10-20T09:55:30Z</time>
      </trkpt>
      <trkpt lat="43.47393" lon="2.37952">
        <ele>501.95</ele>
        <time>2018-10-20T09:55:47Z</time>
      </trkpt>
      <trkpt lat="43.47417" lon="2.37935">
        <ele>499.06</ele>
        <time>2018-10-20T09:56:25Z</time>
      </trkpt>
      <trkpt lat="43.4743" lon="2.3792">
        <ele>499.06</ele>
        <time>2018-10-20T09:56:55Z</time>
      </trkpt>
      <trkpt lat="43.47438" lon="2.37914">
        <ele>498.58</ele>
        <time>2018-10-20T09:57:07Z</time>
      </trkpt>
      <trkpt lat="43.47446" lon="2.3791">
        <ele>495.7</ele>
        <time>2018-10-20T09:57:25Z</time>
      </trkpt>
      <trkpt lat="43.47455" lon="2.37903">
        <ele>493.29</ele>
        <time>2018-10-20T09:57:43Z</time>
      </trkpt>
      <trkpt lat="43.47461" lon="2.37895">
        <ele>493.29</ele>
        <time>2018-10-20T09:58:02Z</time>
      </trkpt>
      <trkpt lat="43.47466" lon="2.37891">
        <ele>494.26</ele>
        <time>2018-10-20T09:59:43Z</time>
      </trkpt>
      <trkpt lat="43.47465" lon="2.37891">
        <ele>492.81</ele>
        <time>2018-10-20T09:59:54Z</time>
      </trkpt>
      <trkpt lat="43.4747" lon="2.37885">
        <ele>492.33</ele>
        <time>2018-10-20T10:00:02Z</time>
      </trkpt>
      <trkpt lat="43.47484" lon="2.37867">
        <ele>492.33</ele>
        <time>2018-10-20T10:00:18Z</time>
      </trkpt>
      <trkpt lat="43.47496" lon="2.37858">
        <ele>493.77</ele>
        <time>2018-10-20T10:00:35Z</time>
      </trkpt>
      <trkpt lat="43.47504" lon="2.37845">
        <ele>497.14</ele>
        <time>2018-10-20T10:01:07Z</time>
      </trkpt>
      <trkpt lat="43.4751" lon="2.37843">
        <ele>497.62</ele>
        <time>2018-10-20T10:01:41Z</time>
      </trkpt>
      <trkpt lat="43.47537" lon="2.37826">
        <ele>495.22</ele>
        <time>2018-10-20T10:04:52Z</time>
      </trkpt>
      <trkpt lat="43.4754" lon="2.37825">
        <ele>494.74</ele>
        <time>2018-10-20T10:05:11Z</time>
      </trkpt>
      <trkpt lat="43.47553" lon="2.37833">
        <ele>493.29</ele>
        <time>2018-10-20T10:05:24Z</time>
      </trkpt>
      <trkpt lat="43.47559" lon="2.37834">
        <ele>491.37</ele>
        <time>2018-10-20T10:05:37Z</time>
      </trkpt>
      <trkpt lat="43.47572" lon="2.37837">
        <ele>489.45</ele>
        <time>2018-10-20T10:05:51Z</time>
      </trkpt>
      <trkpt lat="43.47578" lon="2.3784">
        <ele>488.49</ele>
        <time>2018-10-20T10:06:06Z</time>
      </trkpt>
      <trkpt lat="43.47578" lon="2.37841">
        <ele>488.49</ele>
        <time>2018-10-20T10:06:08Z</time>
      </trkpt>
      <trkpt lat="43.47581" lon="2.3784">
        <ele>488.49</ele>
        <time>2018-10-20T10:06:15Z</time>
      </trkpt>
      <trkpt lat="43.47579" lon="2.37842">
        <ele>488.97</ele>
        <time>2018-10-20T10:06:31Z</time>
      </trkpt>
      <trkpt lat="43.47581" lon="2.3784">
        <ele>488.01</ele>
        <time>2018-10-20T10:06:44Z</time>
      </trkpt>
      <trkpt lat="43.47594" lon="2.37836">
        <ele>486.08</ele>
        <time>2018-10-20T10:07:01Z</time>
      </trkpt>
      <trkpt lat="43.47589" lon="2.3784">
        <ele>484.16</ele>
        <time>2018-10-20T10:07:14Z</time>
      </trkpt>
      <trkpt lat="43.47592" lon="2.37843">
        <ele>484.16</ele>
        <time>2018-10-20T10:07:32Z</time>
      </trkpt>
      <trkpt lat="43.47595" lon="2.37845">
        <ele>482.72</ele>
        <time>2018-10-20T10:07:48Z</time>
      </trkpt>
      <trkpt lat="43.4759" lon="2.37852">
        <ele>481.76</ele>
        <time>2018-10-20T10:08:02Z</time>
      </trkpt>
      <trkpt lat="43.47578" lon="2.37863">
        <ele>478.87</ele>
        <time>2018-10-20T10:08:19Z</time>
      </trkpt>
      <trkpt lat="43.47572" lon="2.37867">
        <ele>478.39</ele>
        <time>2018-10-20T10:08:35Z</time>
      </trkpt>
      <trkpt lat="43.47575" lon="2.37868">
        <ele>478.39</ele>
        <time>2018-10-20T10:08:46Z</time>
      </trkpt>
      <trkpt lat="43.47576" lon="2.3787">
        <ele>478.39</ele>
        <time>2018-10-20T10:08:54Z</time>
      </trkpt>
      <trkpt lat="43.47587" lon="2.37871">
        <ele>475.99</ele>
        <time>2018-10-20T10:09:12Z</time>
      </trkpt>
      <trkpt lat="43.47595" lon="2.3787">
        <ele>473.59</ele>
        <time>2018-10-20T10:09:27Z</time>
      </trkpt>
      <trkpt lat="43.47603" lon="2.37865">
        <ele>471.18</ele>
        <time>2018-10-20T10:09:42Z</time>
      </trkpt>
      <trkpt lat="43.47609" lon="2.37863">
        <ele>469.74</ele>
        <time>2018-10-20T10:10:00Z</time>
      </trkpt>
      <trkpt lat="43.47615" lon="2.37868">
        <ele>469.26</ele>
        <time>2018-10-20T10:10:13Z</time>
      </trkpt>
      <trkpt lat="43.47608" lon="2.37867">
        <ele>467.82</ele>
        <time>2018-10-20T10:10:29Z</time>
      </trkpt>
      <trkpt lat="43.47598" lon="2.37871">
        <ele>464.93</ele>
        <time>2018-10-20T10:10:48Z</time>
      </trkpt>
      <trkpt lat="43.47601" lon="2.37882">
        <ele>463.49</ele>
        <time>2018-10-20T10:11:05Z</time>
      </trkpt>
      <trkpt lat="43.47608" lon="2.37882">
        <ele>462.05</ele>
        <time>2018-10-20T10:11:23Z</time>
      </trkpt>
      <trkpt lat="43.4761" lon="2.37884">
        <ele>461.57</ele>
        <time>2018-10-20T10:11:38Z</time>
      </trkpt>
      <trkpt lat="43.47617" lon="2.37885">
        <ele>460.13</ele>
        <time>2018-10-20T10:11:51Z</time>
      </trkpt>
      <trkpt lat="43.47626" lon="2.37885">
        <ele>458.69</ele>
        <time>2018-10-20T10:12:02Z</time>
      </trkpt>
      <trkpt lat="43.4764" lon="2.37883">
        <ele>457.72</ele>
        <time>2018-10-20T10:12:19Z</time>
      </trkpt>
      <trkpt lat="43.47645" lon="2.37883">
        <ele>457.24</ele>
        <time>2018-10-20T10:12:34Z</time>
      </trkpt>
      <trkpt lat="43.4765" lon="2.3788">
        <ele>455.32</ele>
        <time>2018-10-20T10:14:05Z</time>
      </trkpt>
      <trkpt lat="43.4766" lon="2.3789">
        <ele>455.32</ele>
        <time>2018-10-20T10:14:17Z</time>
      </trkpt>
      <trkpt lat="43.47664" lon="2.37885">
        <ele>458.21</ele>
        <time>2018-10-20T10:15:02Z</time>
      </trkpt>
      <trkpt lat="43.47663" lon="2.37886">
        <ele>457.72</ele>
        <time>2018-10-20T10:15:23Z</time>
      </trkpt>
      <trkpt lat="43.47663" lon="2.37882">
        <ele>458.21</ele>
        <time>2018-10-20T10:15:26Z</time>
      </trkpt>
      <trkpt lat="43.47659" lon="2.37865">
        <ele>457.72</ele>
        <time>2018-10-20T10:15:40Z</time>
      </trkpt>
      <trkpt lat="43.47662" lon="2.37865">
        <ele>454.36</ele>
        <time>2018-10-20T10:15:51Z</time>
      </trkpt>
      <trkpt lat="43.47662" lon="2.37861">
        <ele>454.36</ele>
        <time>2018-10-20T10:15:54Z</time>
      </trkpt>
      <trkpt lat="43.47663" lon="2.37852">
        <ele>453.4</ele>
        <time>2018-10-20T10:16:05Z</time>
      </trkpt>
      <trkpt lat="43.47662" lon="2.37852">
        <ele>452.92</ele>
        <time>2018-10-20T10:16:59Z</time>
      </trkpt>
      <trkpt lat="43.47662" lon="2.37848">
        <ele>451.48</ele>
        <time>2018-10-20T10:17:48Z</time>
      </trkpt>
      <trkpt lat="43.47664" lon="2.37844">
        <ele>449.07</ele>
        <time>2018-10-20T10:18:20Z</time>
      </trkpt>
      <trkpt lat="43.47662" lon="2.37838">
        <ele>447.63</ele>
        <time>2018-10-20T10:18:35Z</time>
      </trkpt>
      <trkpt lat="43.47662" lon="2.37832">
        <ele>445.71</ele>
        <time>2018-10-20T10:18:50Z</time>
      </trkpt>
      <trkpt lat="43.4766" lon="2.37822">
        <ele>442.82</ele>
        <time>2018-10-20T10:19:06Z</time>
      </trkpt>
      <trkpt lat="43.47659" lon="2.37814">
        <ele>440.42</ele>
        <time>2018-10-20T10:19:20Z</time>
      </trkpt>
      <trkpt lat="43.4766" lon="2.37801">
        <ele>438.02</ele>
        <time>2018-10-20T10:19:35Z</time>
      </trkpt>
      <trkpt lat="43.47662" lon="2.37792">
        <ele>435.61</ele>
        <time>2018-10-20T10:19:49Z</time>
      </trkpt>
      <trkpt lat="43.47665" lon="2.37788">
        <ele>434.17</ele>
        <time>2018-10-20T10:20:02Z</time>
      </trkpt>
      <trkpt lat="43.47668" lon="2.378">
        <ele>432.25</ele>
        <time>2018-10-20T10:20:16Z</time>
      </trkpt>
      <trkpt lat="43.4767" lon="2.37817">
        <ele>432.25</ele>
        <time>2018-10-20T10:20:31Z</time>
      </trkpt>
      <trkpt lat="43.47678" lon="2.37822">
        <ele>430.81</ele>
        <time>2018-10-20T10:20:48Z</time>
      </trkpt>
      <trkpt lat="43.47681" lon="2.37828">
        <ele>428.89</ele>
        <time>2018-10-20T10:21:03Z</time>
      </trkpt>
      <trkpt lat="43.47687" lon="2.37832">
        <ele>426.48</ele>
        <time>2018-10-20T10:21:18Z</time>
      </trkpt>
      <trkpt lat="43.47693" lon="2.37839">
        <ele>424.56</ele>
        <time>2018-10-20T10:21:31Z</time>
      </trkpt>
      <trkpt lat="43.477" lon="2.37845">
        <ele>423.12</ele>
        <time>2018-10-20T10:21:47Z</time>
      </trkpt>
      <trkpt lat="43.47702" lon="2.37848">
        <ele>422.64</ele>
        <time>2018-10-20T10:22:02Z</time>
      </trkpt>
      <trkpt lat="43.47707" lon="2.37848">
        <ele>422.16</ele>
        <time>2018-10-20T10:22:17Z</time>
      </trkpt>
      <trkpt lat="43.47704" lon="2.37844">
        <ele>422.64</ele>
        <time>2018-10-20T10:22:37Z</time>
      </trkpt>
      <trkpt lat="43.477" lon="2.37837">
        <ele>419.27</ele>
        <time>2018-10-20T10:22:51Z</time>
      </trkpt>
      <trkpt lat="43.47702" lon="2.37839">
        <ele>418.79</ele>
        <time>2018-10-20T10:22:55Z</time>
      </trkpt>
      <trkpt lat="43.47709" lon="2.37839">
        <ele>415.43</ele>
        <time>2018-10-20T10:23:07Z</time>
      </trkpt>
      <trkpt lat="43.47719" lon="2.37836">
        <ele>412.06</ele>
        <time>2018-10-20T10:23:19Z</time>
      </trkpt>
      <trkpt lat="43.47724" lon="2.37835">
        <ele>410.14</ele>
        <time>2018-10-20T10:23:31Z</time>
      </trkpt>
      <trkpt lat="43.47728" lon="2.37832">
        <ele>409.18</ele>
        <time>2018-10-20T10:23:40Z</time>
      </trkpt>
      <trkpt lat="43.47735" lon="2.37826">
        <ele>408.22</ele>
        <time>2018-10-20T10:23:46Z</time>
      </trkpt>
      <trkpt lat="43.47736" lon="2.37824">
        <ele>408.22</ele>
        <time>2018-10-20T10:24:02Z</time>
      </trkpt>
      <trkpt lat="43.47743" lon="2.37822">
        <ele>407.74</ele>
        <time>2018-10-20T10:24:17Z</time>
      </trkpt>
      <trkpt lat="43.4775" lon="2.37814">
        <ele>406.29</ele>
        <time>2018-10-20T10:24:30Z</time>
      </trkpt>
      <trkpt lat="43.47761" lon="2.37806">
        <ele>406.29</ele>
        <time>2018-10-20T10:24:47Z</time>
      </trkpt>
      <trkpt lat="43.47765" lon="2.378">
        <ele>405.81</ele>
        <time>2018-10-20T10:25:05Z</time>
      </trkpt>
      <trkpt lat="43.47767" lon="2.378">
        <ele>405.33</ele>
        <time>2018-10-20T10:25:08Z</time>
      </trkpt>
      <trkpt lat="43.47778" lon="2.37795">
        <ele>404.85</ele>
        <time>2018-10-20T10:25:22Z</time>
      </trkpt>
      <trkpt lat="43.47787" lon="2.37787">
        <ele>404.85</ele>
        <time>2018-10-20T10:25:35Z</time>
      </trkpt>
      <trkpt lat="43.47797" lon="2.37777">
        <ele>405.33</ele>
        <time>2018-10-20T10:25:48Z</time>
      </trkpt>
      <trkpt lat="43.47809" lon="2.37768">
        <ele>405.33</ele>
        <time>2018-10-20T10:26:05Z</time>
      </trkpt>
      <trkpt lat="43.47821" lon="2.37759">
        <ele>406.29</ele>
        <time>2018-10-20T10:26:18Z</time>
      </trkpt>
      <trkpt lat="43.4783" lon="2.37752">
        <ele>407.26</ele>
        <time>2018-10-20T10:26:31Z</time>
      </trkpt>
      <trkpt lat="43.47842" lon="2.37743">
        <ele>409.18</ele>
        <time>2018-10-20T10:26:45Z</time>
      </trkpt>
      <trkpt lat="43.47854" lon="2.37731">
        <ele>411.1</ele>
        <time>2018-10-20T10:26:59Z</time>
      </trkpt>
      <trkpt lat="43.47852" lon="2.37728">
        <ele>410.14</ele>
        <time>2018-10-20T10:30:55Z</time>
      </trkpt>
      <trkpt lat="43.47851" lon="2.3772">
        <ele>409.18</ele>
        <time>2018-10-20T10:31:14Z</time>
      </trkpt>
      <trkpt lat="43.4785" lon="2.3772">
        <ele>408.22</ele>
        <time>2018-10-20T10:31:28Z</time>
      </trkpt>
      <trkpt lat="43.47849" lon="2.3772">
        <ele>407.26</ele>
        <time>2018-10-20T10:31:40Z</time>
      </trkpt>
      <trkpt lat="43.47849" lon="2.37709">
        <ele>405.33</ele>
        <time>2018-10-20T10:31:56Z</time>
      </trkpt>
      <trkpt lat="43.47856" lon="2.37702">
        <ele>404.85</ele>
        <time>2018-10-20T10:32:11Z</time>
      </trkpt>
      <trkpt lat="43.47859" lon="2.37695">
        <ele>403.41</ele>
        <time>2018-10-20T10:32:23Z</time>
      </trkpt>
      <trkpt lat="43.47859" lon="2.37687">
        <ele>401.97</ele>
        <time>2018-10-20T10:32:37Z</time>
      </trkpt>
      <trkpt lat="43.47855" lon="2.37674">
        <ele>401.49</ele>
        <time>2018-10-20T10:32:53Z</time>
      </trkpt>
      <trkpt lat="43.47852" lon="2.37653">
        <ele>401.97</ele>
        <time>2018-10-20T10:33:10Z</time>
      </trkpt>
      <trkpt lat="43.47852" lon="2.37637">
        <ele>402.93</ele>
        <time>2018-10-20T10:33:26Z</time>
      </trkpt>
      <trkpt lat="43.47849" lon="2.37618">
        <ele>404.85</ele>
        <time>2018-10-20T10:33:41Z</time>
      </trkpt>
      <trkpt lat="43.47846" lon="2.37601">
        <ele>406.77</ele>
        <time>2018-10-20T10:33:57Z</time>
      </trkpt>
      <trkpt lat="43.47842" lon="2.37581">
        <ele>405.81</ele>
        <time>2018-10-20T10:34:14Z</time>
      </trkpt>
      <trkpt lat="43.47836" lon="2.37567">
        <ele>406.77</ele>
        <time>2018-10-20T10:34:26Z</time>
      </trkpt>
      <trkpt lat="43.47827" lon="2.37554">
        <ele>409.18</ele>
        <time>2018-10-20T10:34:43Z</time>
      </trkpt>
      <trkpt lat="43.47827" lon="2.3755">
        <ele>410.62</ele>
        <time>2018-10-20T10:34:56Z</time>
      </trkpt>
      <trkpt lat="43.47828" lon="2.37545">
        <ele>413.02</ele>
        <time>2018-10-20T10:35:10Z</time>
      </trkpt>
      <trkpt lat="43.47833" lon="2.37543">
        <ele>413.98</ele>
        <time>2018-10-20T10:35:26Z</time>
      </trkpt>
      <trkpt lat="43.47833" lon="2.37535">
        <ele>413.5</ele>
        <time>2018-10-20T10:36:14Z</time>
      </trkpt>
      <trkpt lat="43.47831" lon="2.3753">
        <ele>413.02</ele>
        <time>2018-10-20T10:36:30Z</time>
      </trkpt>
      <trkpt lat="43.47824" lon="2.37515">
        <ele>413.5</ele>
        <time>2018-10-20T10:36:45Z</time>
      </trkpt>
      <trkpt lat="43.47819" lon="2.375">
        <ele>413.02</ele>
        <time>2018-10-20T10:37:24Z</time>
      </trkpt>
      <trkpt lat="43.47812" lon="2.37491">
        <ele>412.06</ele>
        <time>2018-10-20T10:37:46Z</time>
      </trkpt>
      <trkpt lat="43.4781" lon="2.37489">
        <ele>411.58</ele>
        <time>2018-10-20T10:37:48Z</time>
      </trkpt>
      <trkpt lat="43.47805" lon="2.3747">
        <ele>408.7</ele>
        <time>2018-10-20T10:38:04Z</time>
      </trkpt>
      <trkpt lat="43.47797" lon="2.37453">
        <ele>407.26</ele>
        <time>2018-10-20T10:38:18Z</time>
      </trkpt>
      <trkpt lat="43.47786" lon="2.37439">
        <ele>406.77</ele>
        <time>2018-10-20T10:38:32Z</time>
      </trkpt>
      <trkpt lat="43.47776" lon="2.37425">
        <ele>406.77</ele>
        <time>2018-10-20T10:38:46Z</time>
      </trkpt>
      <trkpt lat="43.47764" lon="2.37408">
        <ele>403.89</ele>
        <time>2018-10-20T10:39:02Z</time>
      </trkpt>
      <trkpt lat="43.47756" lon="2.37397">
        <ele>402.45</ele>
        <time>2018-10-20T10:39:15Z</time>
      </trkpt>
      <trkpt lat="43.47748" lon="2.37391">
        <ele>400.05</ele>
        <time>2018-10-20T10:39:30Z</time>
      </trkpt>
      <trkpt lat="43.47745" lon="2.37381">
        <ele>397.16</ele>
        <time>2018-10-20T10:39:43Z</time>
      </trkpt>
      <trkpt lat="43.47754" lon="2.37378">
        <ele>395.72</ele>
        <time>2018-10-20T10:39:56Z</time>
      </trkpt>
      <trkpt lat="43.47762" lon="2.37378">
        <ele>394.76</ele>
        <time>2018-10-20T10:40:12Z</time>
      </trkpt>
      <trkpt lat="43.47771" lon="2.37382">
        <ele>394.28</ele>
        <time>2018-10-20T10:40:25Z</time>
      </trkpt>
      <trkpt lat="43.47789" lon="2.3739">
        <ele>392.36</ele>
        <time>2018-10-20T10:40:58Z</time>
      </trkpt>
      <trkpt lat="43.47796" lon="2.37385">
        <ele>389.47</ele>
        <time>2018-10-20T10:41:11Z</time>
      </trkpt>
      <trkpt lat="43.47807" lon="2.37395">
        <ele>387.07</ele>
        <time>2018-10-20T10:41:26Z</time>
      </trkpt>
      <trkpt lat="43.47819" lon="2.37413">
        <ele>385.63</ele>
        <time>2018-10-20T10:42:40Z</time>
      </trkpt>
      <trkpt lat="43.4782" lon="2.3742">
        <ele>387.07</ele>
        <time>2018-10-20T10:42:57Z</time>
      </trkpt>
      <trkpt lat="43.47824" lon="2.37428">
        <ele>388.03</ele>
        <time>2018-10-20T10:43:14Z</time>
      </trkpt>
      <trkpt lat="43.47825" lon="2.37429">
        <ele>387.55</ele>
        <time>2018-10-20T10:43:37Z</time>
      </trkpt>
      <trkpt lat="43.47827" lon="2.37434">
        <ele>389.47</ele>
        <time>2018-10-20T10:43:54Z</time>
      </trkpt>
      <trkpt lat="43.47835" lon="2.37445">
        <ele>390.91</ele>
        <time>2018-10-20T10:44:10Z</time>
      </trkpt>
      <trkpt lat="43.4784" lon="2.37451">
        <ele>390.43</ele>
        <time>2018-10-20T10:44:24Z</time>
      </trkpt>
      <trkpt lat="43.47844" lon="2.37459">
        <ele>388.03</ele>
        <time>2018-10-20T10:44:39Z</time>
      </trkpt>
      <trkpt lat="43.47843" lon="2.37457">
        <ele>386.59</ele>
        <time>2018-10-20T10:44:53Z</time>
      </trkpt>
      <trkpt lat="43.47849" lon="2.37464">
        <ele>386.59</ele>
        <time>2018-10-20T10:45:14Z</time>
      </trkpt>
      <trkpt lat="43.47855" lon="2.37474">
        <ele>386.59</ele>
        <time>2018-10-20T10:45:28Z</time>
      </trkpt>
      <trkpt lat="43.4786" lon="2.37494">
        <ele>383.7</ele>
        <time>2018-10-20T10:45:45Z</time>
      </trkpt>
      <trkpt lat="43.47858" lon="2.37511">
        <ele>382.74</ele>
        <time>2018-10-20T10:45:58Z</time>
      </trkpt>
      <trkpt lat="43.47856" lon="2.37526">
        <ele>383.7</ele>
        <time>2018-10-20T10:46:13Z</time>
      </trkpt>
      <trkpt lat="43.47854" lon="2.37545">
        <ele>384.18</ele>
        <time>2018-10-20T10:46:30Z</time>
      </trkpt>
      <trkpt lat="43.47866" lon="2.3756">
        <ele>382.74</ele>
        <time>2018-10-20T10:46:46Z</time>
      </trkpt>
      <trkpt lat="43.47873" lon="2.37575">
        <ele>383.7</ele>
        <time>2018-10-20T10:47:01Z</time>
      </trkpt>
      <trkpt lat="43.47872" lon="2.37582">
        <ele>384.66</ele>
        <time>2018-10-20T10:47:19Z</time>
      </trkpt>
      <trkpt lat="43.47871" lon="2.37598">
        <ele>385.15</ele>
        <time>2018-10-20T10:47:32Z</time>
      </trkpt>
      <trkpt lat="43.47872" lon="2.37617">
        <ele>383.7</ele>
        <time>2018-10-20T10:47:47Z</time>
      </trkpt>
      <trkpt lat="43.47873" lon="2.37632">
        <ele>383.22</ele>
        <time>2018-10-20T10:48:00Z</time>
      </trkpt>
      <trkpt lat="43.47875" lon="2.37649">
        <ele>382.74</ele>
        <time>2018-10-20T10:48:13Z</time>
      </trkpt>
      <trkpt lat="43.47875" lon="2.37669">
        <ele>384.18</ele>
        <time>2018-10-20T10:48:29Z</time>
      </trkpt>
      <trkpt lat="43.47875" lon="2.37679">
        <ele>385.63</ele>
        <time>2018-10-20T10:48:43Z</time>
      </trkpt>
      <trkpt lat="43.47882" lon="2.37689">
        <ele>385.63</ele>
        <time>2018-10-20T10:48:57Z</time>
      </trkpt>
      <trkpt lat="43.47891" lon="2.37697">
        <ele>382.74</ele>
        <time>2018-10-20T10:49:11Z</time>
      </trkpt>
      <trkpt lat="43.47895" lon="2.37701">
        <ele>381.3</ele>
        <time>2018-10-20T10:49:17Z</time>
      </trkpt>
      <trkpt lat="43.47899" lon="2.37709">
        <ele>381.3</ele>
        <time>2018-10-20T10:49:31Z</time>
      </trkpt>
      <trkpt lat="43.47906" lon="2.37728">
        <ele>380.82</ele>
        <time>2018-10-20T10:49:45Z</time>
      </trkpt>
      <trkpt lat="43.47906" lon="2.37731">
        <ele>379.38</ele>
        <time>2018-10-20T10:49:50Z</time>
      </trkpt>
      <trkpt lat="43.47906" lon="2.37731">
        <ele>380.82</ele>
        <time>2018-10-20T10:49:55Z</time>
      </trkpt>
      <trkpt lat="43.47909" lon="2.37742">
        <ele>379.86</ele>
        <time>2018-10-20T10:50:11Z</time>
      </trkpt>
      <trkpt lat="43.47908" lon="2.37758">
        <ele>379.86</ele>
        <time>2018-10-20T10:50:26Z</time>
      </trkpt>
      <trkpt lat="43.47906" lon="2.3777">
        <ele>380.34</ele>
        <time>2018-10-20T10:50:40Z</time>
      </trkpt>
      <trkpt lat="43.47905" lon="2.37785">
        <ele>378.9</ele>
        <time>2018-10-20T10:51:01Z</time>
      </trkpt>
      <trkpt lat="43.47906" lon="2.37791">
        <ele>377.45</ele>
        <time>2018-10-20T10:51:18Z</time>
      </trkpt>
      <trkpt lat="43.47906" lon="2.37794">
        <ele>374.09</ele>
        <time>2018-10-20T10:51:50Z</time>
      </trkpt>
      <trkpt lat="43.47906" lon="2.37802">
        <ele>371.69</ele>
        <time>2018-10-20T10:52:04Z</time>
      </trkpt>
      <trkpt lat="43.47903" lon="2.37803">
        <ele>370.73</ele>
        <time>2018-10-20T10:52:21Z</time>
      </trkpt>
      <trkpt lat="43.47911" lon="2.37799">
        <ele>372.17</ele>
        <time>2018-10-20T10:52:36Z</time>
      </trkpt>
      <trkpt lat="43.47918" lon="2.37804">
        <ele>373.13</ele>
        <time>2018-10-20T10:52:51Z</time>
      </trkpt>
      <trkpt lat="43.47923" lon="2.37824">
        <ele>374.57</ele>
        <time>2018-10-20T10:53:07Z</time>
      </trkpt>
      <trkpt lat="43.47923" lon="2.37828">
        <ele>375.05</ele>
        <time>2018-10-20T10:53:28Z</time>
      </trkpt>
      <trkpt lat="43.47927" lon="2.3784">
        <ele>376.49</ele>
        <time>2018-10-20T10:53:41Z</time>
      </trkpt>
      <trkpt lat="43.47934" lon="2.37857">
        <ele>377.45</ele>
        <time>2018-10-20T10:53:58Z</time>
      </trkpt>
      <trkpt lat="43.4794" lon="2.37869">
        <ele>379.38</ele>
        <time>2018-10-20T10:54:15Z</time>
      </trkpt>
      <trkpt lat="43.47947" lon="2.37883">
        <ele>379.86</ele>
        <time>2018-10-20T10:54:31Z</time>
      </trkpt>
      <trkpt lat="43.47954" lon="2.37898">
        <ele>379.38</ele>
        <time>2018-10-20T10:54:47Z</time>
      </trkpt>
      <trkpt lat="43.47965" lon="2.3791">
        <ele>377.94</ele>
        <time>2018-10-20T10:55:04Z</time>
      </trkpt>
      <trkpt lat="43.47978" lon="2.37926">
        <ele>378.42</ele>
        <time>2018-10-20T10:55:22Z</time>
      </trkpt>
      <trkpt lat="43.47989" lon="2.37933">
        <ele>379.86</ele>
        <time>2018-10-20T10:55:37Z</time>
      </trkpt>
      <trkpt lat="43.47997" lon="2.37938">
        <ele>380.82</ele>
        <time>2018-10-20T10:55:51Z</time>
      </trkpt>
      <trkpt lat="43.48003" lon="2.37945">
        <ele>382.26</ele>
        <time>2018-10-20T10:56:06Z</time>
      </trkpt>
      <trkpt lat="43.48006" lon="2.37948">
        <ele>383.7</ele>
        <time>2018-10-20T10:56:31Z</time>
      </trkpt>
      <trkpt lat="43.48072" lon="2.37975">
        <ele>394.28</ele>
        <time>2018-10-20T10:58:36Z</time>
      </trkpt>
      <trkpt lat="43.48082" lon="2.37976">
        <ele>397.16</ele>
        <time>2018-10-20T10:58:57Z</time>
      </trkpt>
      <trkpt lat="43.48094" lon="2.37981">
        <ele>398.12</ele>
        <time>2018-10-20T10:59:16Z</time>
      </trkpt>
      <trkpt lat="43.48103" lon="2.37983">
        <ele>399.57</ele>
        <time>2018-10-20T10:59:36Z</time>
      </trkpt>
      <trkpt lat="43.48113" lon="2.3799">
        <ele>401.97</ele>
        <time>2018-10-20T10:59:55Z</time>
      </trkpt>
      <trkpt lat="43.48123" lon="2.37993">
        <ele>401.97</ele>
        <time>2018-10-20T11:00:13Z</time>
      </trkpt>
      <trkpt lat="43.48138" lon="2.38007">
        <ele>402.45</ele>
        <time>2018-10-20T11:00:31Z</time>
      </trkpt>
      <trkpt lat="43.48153" lon="2.38021">
        <ele>401.97</ele>
        <time>2018-10-20T11:00:52Z</time>
      </trkpt>
      <trkpt lat="43.48167" lon="2.38038">
        <ele>401.01</ele>
        <time>2018-10-20T11:01:11Z</time>
      </trkpt>
      <trkpt lat="43.4818" lon="2.38056">
        <ele>403.41</ele>
        <time>2018-10-20T11:02:24Z</time>
      </trkpt>
      <trkpt lat="43.48211" lon="2.38075">
        <ele>406.29</ele>
        <time>2018-10-20T11:03:34Z</time>
      </trkpt>
      <trkpt lat="43.48217" lon="2.38072">
        <ele>407.26</ele>
        <time>2018-10-20T11:03:48Z</time>
      </trkpt>
      <trkpt lat="43.48222" lon="2.38066">
        <ele>407.74</ele>
        <time>2018-10-20T11:04:03Z</time>
      </trkpt>
      <trkpt lat="43.48229" lon="2.38062">
        <ele>408.7</ele>
        <time>2018-10-20T11:04:16Z</time>
      </trkpt>
      <trkpt lat="43.4824" lon="2.38056">
        <ele>409.66</ele>
        <time>2018-10-20T11:04:29Z</time>
      </trkpt>
      <trkpt lat="43.48249" lon="2.38048">
        <ele>411.1</ele>
        <time>2018-10-20T11:04:45Z</time>
      </trkpt>
      <trkpt lat="43.48252" lon="2.38047">
        <ele>412.06</ele>
        <time>2018-10-20T11:05:00Z</time>
      </trkpt>
      <trkpt lat="43.48261" lon="2.38041">
        <ele>414.47</ele>
        <time>2018-10-20T11:05:16Z</time>
      </trkpt>
      <trkpt lat="43.4827" lon="2.38038">
        <ele>416.39</ele>
        <time>2018-10-20T11:05:34Z</time>
      </trkpt>
      <trkpt lat="43.48281" lon="2.38033">
        <ele>416.87</ele>
        <time>2018-10-20T11:05:50Z</time>
      </trkpt>
      <trkpt lat="43.48289" lon="2.38029">
        <ele>416.39</ele>
        <time>2018-10-20T11:06:03Z</time>
      </trkpt>
      <trkpt lat="43.48298" lon="2.38029">
        <ele>415.91</ele>
        <time>2018-10-20T11:06:17Z</time>
      </trkpt>
      <trkpt lat="43.48305" lon="2.38031">
        <ele>415.43</ele>
        <time>2018-10-20T11:06:33Z</time>
      </trkpt>
      <trkpt lat="43.48313" lon="2.3803">
        <ele>414.95</ele>
        <time>2018-10-20T11:06:51Z</time>
      </trkpt>
      <trkpt lat="43.48321" lon="2.38029">
        <ele>413.02</ele>
        <time>2018-10-20T11:07:05Z</time>
      </trkpt>
      <trkpt lat="43.48325" lon="2.3803">
        <ele>413.02</ele>
        <time>2018-10-20T11:07:22Z</time>
      </trkpt>
      <trkpt lat="43.48335" lon="2.38032">
        <ele>412.06</ele>
        <time>2018-10-20T11:07:41Z</time>
      </trkpt>
      <trkpt lat="43.48343" lon="2.3803">
        <ele>413.5</ele>
        <time>2018-10-20T11:07:59Z</time>
      </trkpt>
      <trkpt lat="43.48352" lon="2.38021">
        <ele>414.95</ele>
        <time>2018-10-20T11:08:19Z</time>
      </trkpt>
      <trkpt lat="43.48369" lon="2.38021">
        <ele>416.87</ele>
        <time>2018-10-20T11:08:40Z</time>
      </trkpt>
      <trkpt lat="43.48377" lon="2.38015">
        <ele>418.31</ele>
        <time>2018-10-20T11:08:55Z</time>
      </trkpt>
      <trkpt lat="43.4838" lon="2.3801">
        <ele>419.27</ele>
        <time>2018-10-20T11:09:09Z</time>
      </trkpt>
      <trkpt lat="43.48385" lon="2.38008">
        <ele>419.75</ele>
        <time>2018-10-20T11:09:24Z</time>
      </trkpt>
      <trkpt lat="43.48392" lon="2.38003">
        <ele>420.71</ele>
        <time>2018-10-20T11:09:35Z</time>
      </trkpt>
      <trkpt lat="43.48399" lon="2.37997">
        <ele>421.68</ele>
        <time>2018-10-20T11:09:50Z</time>
      </trkpt>
      <trkpt lat="43.48402" lon="2.37993">
        <ele>421.68</ele>
        <time>2018-10-20T11:10:03Z</time>
      </trkpt>
      <trkpt lat="43.48412" lon="2.37989">
        <ele>422.64</ele>
        <time>2018-10-20T11:10:18Z</time>
      </trkpt>
      <trkpt lat="43.48418" lon="2.37984">
        <ele>422.64</ele>
        <time>2018-10-20T11:10:34Z</time>
      </trkpt>
      <trkpt lat="43.48427" lon="2.37979">
        <ele>423.12</ele>
        <time>2018-10-20T11:10:47Z</time>
      </trkpt>
      <trkpt lat="43.48429" lon="2.37977">
        <ele>423.12</ele>
        <time>2018-10-20T11:11:02Z</time>
      </trkpt>
      <trkpt lat="43.48433" lon="2.37969">
        <ele>423.6</ele>
        <time>2018-10-20T11:11:17Z</time>
      </trkpt>
      <trkpt lat="43.48445" lon="2.37959">
        <ele>424.56</ele>
        <time>2018-10-20T11:11:32Z</time>
      </trkpt>
      <trkpt lat="43.48458" lon="2.37952">
        <ele>425.04</ele>
        <time>2018-10-20T11:11:46Z</time>
      </trkpt>
      <trkpt lat="43.48469" lon="2.37949">
        <ele>426.48</ele>
        <time>2018-10-20T11:12:00Z</time>
      </trkpt>
      <trkpt lat="43.48476" lon="2.37947">
        <ele>427.44</ele>
        <time>2018-10-20T11:12:15Z</time>
      </trkpt>
      <trkpt lat="43.48486" lon="2.37948">
        <ele>428.4</ele>
        <time>2018-10-20T11:12:27Z</time>
      </trkpt>
      <trkpt lat="43.48493" lon="2.37949">
        <ele>428.4</ele>
        <time>2018-10-20T11:12:46Z</time>
      </trkpt>
      <trkpt lat="43.48499" lon="2.37946">
        <ele>428.4</ele>
        <time>2018-10-20T11:13:19Z</time>
      </trkpt>
      <trkpt lat="43.48506" lon="2.37945">
        <ele>427.44</ele>
        <time>2018-10-20T11:13:34Z</time>
      </trkpt>
      <trkpt lat="43.48509" lon="2.37942">
        <ele>426.96</ele>
        <time>2018-10-20T11:13:47Z</time>
      </trkpt>
      <trkpt lat="43.48517" lon="2.37939">
        <ele>426</ele>
        <time>2018-10-20T11:14:35Z</time>
      </trkpt>
      <trkpt lat="43.4852" lon="2.3794">
        <ele>426</ele>
        <time>2018-10-20T11:14:48Z</time>
      </trkpt>
      <trkpt lat="43.48517" lon="2.37952">
        <ele>427.92</ele>
        <time>2018-10-20T11:15:04Z</time>
      </trkpt>
      <trkpt lat="43.48516" lon="2.37956">
        <ele>428.4</ele>
        <time>2018-10-20T11:15:36Z</time>
      </trkpt>
      <trkpt lat="43.48514" lon="2.37971">
        <ele>431.77</ele>
        <time>2018-10-20T11:16:20Z</time>
      </trkpt>
      <trkpt lat="43.48514" lon="2.37987">
        <ele>434.17</ele>
        <time>2018-10-20T11:16:50Z</time>
      </trkpt>
      <trkpt lat="43.48512" lon="2.38006">
        <ele>437.06</ele>
        <time>2018-10-20T11:17:30Z</time>
      </trkpt>
      <trkpt lat="43.48512" lon="2.38013">
        <ele>438.02</ele>
        <time>2018-10-20T11:17:49Z</time>
      </trkpt>
      <trkpt lat="43.48511" lon="2.38019">
        <ele>438.5</ele>
        <time>2018-10-20T11:18:03Z</time>
      </trkpt>
      <trkpt lat="43.48507" lon="2.38025">
        <ele>440.42</ele>
        <time>2018-10-20T11:18:21Z</time>
      </trkpt>
      <trkpt lat="43.48504" lon="2.38035">
        <ele>442.34</ele>
        <time>2018-10-20T11:18:38Z</time>
      </trkpt>
      <trkpt lat="43.48501" lon="2.38042">
        <ele>443.31</ele>
        <time>2018-10-20T11:18:53Z</time>
      </trkpt>
      <trkpt lat="43.48498" lon="2.38048">
        <ele>444.27</ele>
        <time>2018-10-20T11:19:08Z</time>
      </trkpt>
      <trkpt lat="43.48488" lon="2.38062">
        <ele>450.52</ele>
        <time>2018-10-20T11:20:11Z</time>
      </trkpt>
      <trkpt lat="43.48486" lon="2.38072">
        <ele>452.92</ele>
        <time>2018-10-20T11:20:28Z</time>
      </trkpt>
      <trkpt lat="43.4848" lon="2.38077">
        <ele>454.84</ele>
        <time>2018-10-20T11:20:46Z</time>
      </trkpt>
      <trkpt lat="43.48477" lon="2.38081">
        <ele>456.76</ele>
        <time>2018-10-20T11:21:01Z</time>
      </trkpt>
      <trkpt lat="43.48469" lon="2.3809">
        <ele>459.17</ele>
        <time>2018-10-20T11:21:35Z</time>
      </trkpt>
      <trkpt lat="43.4846" lon="2.38101">
        <ele>463.97</ele>
        <time>2018-10-20T11:22:43Z</time>
      </trkpt>
      <trkpt lat="43.48454" lon="2.38103">
        <ele>464.93</ele>
        <time>2018-10-20T11:23:02Z</time>
      </trkpt>
      <trkpt lat="43.48451" lon="2.38107">
        <ele>466.86</ele>
        <time>2018-10-20T11:23:19Z</time>
      </trkpt>
      <trkpt lat="43.48448" lon="2.38114">
        <ele>468.3</ele>
        <time>2018-10-20T11:23:36Z</time>
      </trkpt>
      <trkpt lat="43.48443" lon="2.38118">
        <ele>470.22</ele>
        <time>2018-10-20T11:23:56Z</time>
      </trkpt>
      <trkpt lat="43.48437" lon="2.38125">
        <ele>473.11</ele>
        <time>2018-10-20T11:24:26Z</time>
      </trkpt>
      <trkpt lat="43.48432" lon="2.38132">
        <ele>474.07</ele>
        <time>2018-10-20T11:24:45Z</time>
      </trkpt>
      <trkpt lat="43.48427" lon="2.38139">
        <ele>476.47</ele>
        <time>2018-10-20T11:25:01Z</time>
      </trkpt>
      <trkpt lat="43.48421" lon="2.38144">
        <ele>477.91</ele>
        <time>2018-10-20T11:25:16Z</time>
      </trkpt>
      <trkpt lat="43.48418" lon="2.38145">
        <ele>478.87</ele>
        <time>2018-10-20T11:25:35Z</time>
      </trkpt>
      <trkpt lat="43.48413" lon="2.3815">
        <ele>480.8</ele>
        <time>2018-10-20T11:25:47Z</time>
      </trkpt>
      <trkpt lat="43.48398" lon="2.38153">
        <ele>484.64</ele>
        <time>2018-10-20T11:26:34Z</time>
      </trkpt>
      <trkpt lat="43.4839" lon="2.38161">
        <ele>486.56</ele>
        <time>2018-10-20T11:26:50Z</time>
      </trkpt>
      <trkpt lat="43.48388" lon="2.38166">
        <ele>488.97</ele>
        <time>2018-10-20T11:27:06Z</time>
      </trkpt>
      <trkpt lat="43.48382" lon="2.38174">
        <ele>489.45</ele>
        <time>2018-10-20T11:27:21Z</time>
      </trkpt>
      <trkpt lat="43.48378" lon="2.38175">
        <ele>491.85</ele>
        <time>2018-10-20T11:27:36Z</time>
      </trkpt>
      <trkpt lat="43.48371" lon="2.38175">
        <ele>492.33</ele>
        <time>2018-10-20T11:27:51Z</time>
      </trkpt>
      <trkpt lat="43.48367" lon="2.38178">
        <ele>493.77</ele>
        <time>2018-10-20T11:28:04Z</time>
      </trkpt>
      <trkpt lat="43.48366" lon="2.38184">
        <ele>495.7</ele>
        <time>2018-10-20T11:28:21Z</time>
      </trkpt>
      <trkpt lat="43.48362" lon="2.38188">
        <ele>498.1</ele>
        <time>2018-10-20T11:28:34Z</time>
      </trkpt>
      <trkpt lat="43.48356" lon="2.38189">
        <ele>500.02</ele>
        <time>2018-10-20T11:28:53Z</time>
      </trkpt>
      <trkpt lat="43.4835" lon="2.3819">
        <ele>500.98</ele>
        <time>2018-10-20T11:29:08Z</time>
      </trkpt>
      <trkpt lat="43.48341" lon="2.38202">
        <ele>503.39</ele>
        <time>2018-10-20T11:29:24Z</time>
      </trkpt>
      <trkpt lat="43.48336" lon="2.38208">
        <ele>504.83</ele>
        <time>2018-10-20T11:29:38Z</time>
      </trkpt>
      <trkpt lat="43.48334" lon="2.38213">
        <ele>505.79</ele>
        <time>2018-10-20T11:29:57Z</time>
      </trkpt>
      <trkpt lat="43.48334" lon="2.38215">
        <ele>508.19</ele>
        <time>2018-10-20T11:30:09Z</time>
      </trkpt>
      <trkpt lat="43.48332" lon="2.38219">
        <ele>511.08</ele>
        <time>2018-10-20T11:30:21Z</time>
      </trkpt>
      <trkpt lat="43.48333" lon="2.3823">
        <ele>513.48</ele>
        <time>2018-10-20T11:30:34Z</time>
      </trkpt>
      <trkpt lat="43.48342" lon="2.38242">
        <ele>514.92</ele>
        <time>2018-10-20T11:30:50Z</time>
      </trkpt>
      <trkpt lat="43.48341" lon="2.38252">
        <ele>517.33</ele>
        <time>2018-10-20T11:31:08Z</time>
      </trkpt>
      <trkpt lat="43.48343" lon="2.3826">
        <ele>520.21</ele>
        <time>2018-10-20T11:31:24Z</time>
      </trkpt>
      <trkpt lat="43.48344" lon="2.38268">
        <ele>521.65</ele>
        <time>2018-10-20T11:31:41Z</time>
      </trkpt>
      <trkpt lat="43.48344" lon="2.38274">
        <ele>523.58</ele>
        <time>2018-10-20T11:31:57Z</time>
      </trkpt>
      <trkpt lat="43.48348" lon="2.38283">
        <ele>525.98</ele>
        <time>2018-10-20T11:32:14Z</time>
      </trkpt>
      <trkpt lat="43.48347" lon="2.38292">
        <ele>527.9</ele>
        <time>2018-10-20T11:32:32Z</time>
      </trkpt>
      <trkpt lat="43.48345" lon="2.38296">
        <ele>529.82</ele>
        <time>2018-10-20T11:32:50Z</time>
      </trkpt>
      <trkpt lat="43.48343" lon="2.38301">
        <ele>531.75</ele>
        <time>2018-10-20T11:33:08Z</time>
      </trkpt>
      <trkpt lat="43.48339" lon="2.38319">
        <ele>536.55</ele>
        <time>2018-10-20T11:33:53Z</time>
      </trkpt>
      <trkpt lat="43.48337" lon="2.3832">
        <ele>537.03</ele>
        <time>2018-10-20T11:34:09Z</time>
      </trkpt>
      <trkpt lat="43.48335" lon="2.38326">
        <ele>537.99</ele>
        <time>2018-10-20T11:34:26Z</time>
      </trkpt>
      <trkpt lat="43.48333" lon="2.38334">
        <ele>539.92</ele>
        <time>2018-10-20T11:34:42Z</time>
      </trkpt>
      <trkpt lat="43.48329" lon="2.3834">
        <ele>541.84</ele>
        <time>2018-10-20T11:34:55Z</time>
      </trkpt>
      <trkpt lat="43.48325" lon="2.38343">
        <ele>543.76</ele>
        <time>2018-10-20T11:35:09Z</time>
      </trkpt>
      <trkpt lat="43.48312" lon="2.38372">
        <ele>550.97</ele>
        <time>2018-10-20T11:41:51Z</time>
      </trkpt>
      <trkpt lat="43.48306" lon="2.38385">
        <ele>552.41</ele>
        <time>2018-10-20T11:42:08Z</time>
      </trkpt>
      <trkpt lat="43.48301" lon="2.38393">
        <ele>553.38</ele>
        <time>2018-10-20T11:42:23Z</time>
      </trkpt>
      <trkpt lat="43.48294" lon="2.38399">
        <ele>553.86</ele>
        <time>2018-10-20T11:42:54Z</time>
      </trkpt>
      <trkpt lat="43.48285" lon="2.38412">
        <ele>555.3</ele>
        <time>2018-10-20T11:43:09Z</time>
      </trkpt>
      <trkpt lat="43.4828" lon="2.38432">
        <ele>557.7</ele>
        <time>2018-10-20T11:43:40Z</time>
      </trkpt>
      <trkpt lat="43.48274" lon="2.38441">
        <ele>558.66</ele>
        <time>2018-10-20T11:43:55Z</time>
      </trkpt>
      <trkpt lat="43.48273" lon="2.38443">
        <ele>559.14</ele>
        <time>2018-10-20T11:44:11Z</time>
      </trkpt>
      <trkpt lat="43.48269" lon="2.38458">
        <ele>561.07</ele>
        <time>2018-10-20T11:44:27Z</time>
      </trkpt>
      <trkpt lat="43.48251" lon="2.38486">
        <ele>563.95</ele>
        <time>2018-10-20T11:45:33Z</time>
      </trkpt>
      <trkpt lat="43.48243" lon="2.38494">
        <ele>565.87</ele>
        <time>2018-10-20T11:45:45Z</time>
      </trkpt>
      <trkpt lat="43.48231" lon="2.38513">
        <ele>568.28</ele>
        <time>2018-10-20T11:46:16Z</time>
      </trkpt>
      <trkpt lat="43.48226" lon="2.38525">
        <ele>570.68</ele>
        <time>2018-10-20T11:46:33Z</time>
      </trkpt>
      <trkpt lat="43.48221" lon="2.38533">
        <ele>573.08</ele>
        <time>2018-10-20T11:46:48Z</time>
      </trkpt>
      <trkpt lat="43.48216" lon="2.38556">
        <ele>576.45</ele>
        <time>2018-10-20T11:47:20Z</time>
      </trkpt>
      <trkpt lat="43.48217" lon="2.3857">
        <ele>576.45</ele>
        <time>2018-10-20T11:47:37Z</time>
      </trkpt>
      <trkpt lat="43.48221" lon="2.38577">
        <ele>575.97</ele>
        <time>2018-10-20T11:47:51Z</time>
      </trkpt>
      <trkpt lat="43.48229" lon="2.38587">
        <ele>571.64</ele>
        <time>2018-10-20T11:48:21Z</time>
      </trkpt>
      <trkpt lat="43.48233" lon="2.38604">
        <ele>568.76</ele>
        <time>2018-10-20T11:48:54Z</time>
      </trkpt>
      <trkpt lat="43.48234" lon="2.3862">
        <ele>566.35</ele>
        <time>2018-10-20T11:49:12Z</time>
      </trkpt>
      <trkpt lat="43.48236" lon="2.38633">
        <ele>563.47</ele>
        <time>2018-10-20T11:49:27Z</time>
      </trkpt>
      <trkpt lat="43.48239" lon="2.38649">
        <ele>560.59</ele>
        <time>2018-10-20T11:49:42Z</time>
      </trkpt>
      <trkpt lat="43.48238" lon="2.38668">
        <ele>558.18</ele>
        <time>2018-10-20T11:49:57Z</time>
      </trkpt>
      <trkpt lat="43.48227" lon="2.38684">
        <ele>557.22</ele>
        <time>2018-10-20T11:50:14Z</time>
      </trkpt>
      <trkpt lat="43.48216" lon="2.38692">
        <ele>557.22</ele>
        <time>2018-10-20T11:50:28Z</time>
      </trkpt>
      <trkpt lat="43.48208" lon="2.387">
        <ele>557.22</ele>
        <time>2018-10-20T11:50:44Z</time>
      </trkpt>
      <trkpt lat="43.48198" lon="2.38712">
        <ele>557.7</ele>
        <time>2018-10-20T11:51:00Z</time>
      </trkpt>
      <trkpt lat="43.48192" lon="2.38726">
        <ele>559.14</ele>
        <time>2018-10-20T11:51:15Z</time>
      </trkpt>
      <trkpt lat="43.48188" lon="2.38756">
        <ele>559.14</ele>
        <time>2018-10-20T11:51:47Z</time>
      </trkpt>
      <trkpt lat="43.48186" lon="2.3877">
        <ele>558.18</ele>
        <time>2018-10-20T11:52:01Z</time>
      </trkpt>
      <trkpt lat="43.48185" lon="2.38783">
        <ele>556.74</ele>
        <time>2018-10-20T11:52:15Z</time>
      </trkpt>
      <trkpt lat="43.4818" lon="2.38799">
        <ele>556.74</ele>
        <time>2018-10-20T11:52:48Z</time>
      </trkpt>
      <trkpt lat="43.4818" lon="2.38809">
        <ele>557.22</ele>
        <time>2018-10-20T11:53:01Z</time>
      </trkpt>
      <trkpt lat="43.48176" lon="2.38825">
        <ele>557.7</ele>
        <time>2018-10-20T11:53:20Z</time>
      </trkpt>
      <trkpt lat="43.48172" lon="2.3884">
        <ele>558.18</ele>
        <time>2018-10-20T11:53:35Z</time>
      </trkpt>
      <trkpt lat="43.48168" lon="2.38859">
        <ele>557.7</ele>
        <time>2018-10-20T11:53:52Z</time>
      </trkpt>
      <trkpt lat="43.48162" lon="2.38879">
        <ele>554.82</ele>
        <time>2018-10-20T12:41:39Z</time>
      </trkpt>
      <trkpt lat="43.4816" lon="2.38881">
        <ele>554.34</ele>
        <time>2018-10-20T12:41:41Z</time>
      </trkpt>
      <trkpt lat="43.48156" lon="2.38892">
        <ele>553.86</ele>
        <time>2018-10-20T12:41:46Z</time>
      </trkpt>
      <trkpt lat="43.48155" lon="2.38898">
        <ele>553.86</ele>
        <time>2018-10-20T12:41:49Z</time>
      </trkpt>
      <trkpt lat="43.48141" lon="2.3892">
        <ele>554.34</ele>
        <time>2018-10-20T12:42:07Z</time>
      </trkpt>
      <trkpt lat="43.48127" lon="2.38942">
        <ele>555.3</ele>
        <time>2018-10-20T12:42:37Z</time>
      </trkpt>
      <trkpt lat="43.48122" lon="2.38952">
        <ele>554.82</ele>
        <time>2018-10-20T12:42:47Z</time>
      </trkpt>
      <trkpt lat="43.48113" lon="2.38977">
        <ele>556.26</ele>
        <time>2018-10-20T12:43:03Z</time>
      </trkpt>
      <trkpt lat="43.48105" lon="2.38996">
        <ele>557.22</ele>
        <time>2018-10-20T12:43:19Z</time>
      </trkpt>
      <trkpt lat="43.48101" lon="2.39006">
        <ele>557.7</ele>
        <time>2018-10-20T12:43:30Z</time>
      </trkpt>
      <trkpt lat="43.48095" lon="2.39019">
        <ele>558.66</ele>
        <time>2018-10-20T12:43:41Z</time>
      </trkpt>
      <trkpt lat="43.48088" lon="2.39042">
        <ele>559.62</ele>
        <time>2018-10-20T12:43:57Z</time>
      </trkpt>
      <trkpt lat="43.48086" lon="2.39047">
        <ele>560.11</ele>
        <time>2018-10-20T12:44:05Z</time>
      </trkpt>
      <trkpt lat="43.48082" lon="2.39061">
        <ele>561.07</ele>
        <time>2018-10-20T12:44:15Z</time>
      </trkpt>
      <trkpt lat="43.48075" lon="2.39081">
        <ele>562.03</ele>
        <time>2018-10-20T12:44:29Z</time>
      </trkpt>
      <trkpt lat="43.48068" lon="2.39099">
        <ele>562.99</ele>
        <time>2018-10-20T12:44:44Z</time>
      </trkpt>
      <trkpt lat="43.48061" lon="2.39113">
        <ele>563.95</ele>
        <time>2018-10-20T12:44:55Z</time>
      </trkpt>
      <trkpt lat="43.48052" lon="2.3913">
        <ele>565.39</ele>
        <time>2018-10-20T12:45:13Z</time>
      </trkpt>
      <trkpt lat="43.48044" lon="2.39144">
        <ele>566.83</ele>
        <time>2018-10-20T12:45:29Z</time>
      </trkpt>
      <trkpt lat="43.48044" lon="2.39144">
        <ele>567.32</ele>
        <time>2018-10-20T12:45:42Z</time>
      </trkpt>
      <trkpt lat="43.48043" lon="2.39147">
        <ele>567.32</ele>
        <time>2018-10-20T12:45:45Z</time>
      </trkpt>
      <trkpt lat="43.48041" lon="2.3916">
        <ele>567.8</ele>
        <time>2018-10-20T12:45:53Z</time>
      </trkpt>
      <trkpt lat="43.48032" lon="2.39182">
        <ele>568.76</ele>
        <time>2018-10-20T12:46:09Z</time>
      </trkpt>
      <trkpt lat="43.48031" lon="2.39187">
        <ele>568.76</ele>
        <time>2018-10-20T12:46:12Z</time>
      </trkpt>
      <trkpt lat="43.48023" lon="2.39204">
        <ele>569.72</ele>
        <time>2018-10-20T12:46:27Z</time>
      </trkpt>
      <trkpt lat="43.48021" lon="2.39209">
        <ele>570.2</ele>
        <time>2018-10-20T12:46:39Z</time>
      </trkpt>
      <trkpt lat="43.48015" lon="2.39233">
        <ele>571.64</ele>
        <time>2018-10-20T12:47:22Z</time>
      </trkpt>
      <trkpt lat="43.4801" lon="2.39241">
        <ele>572.6</ele>
        <time>2018-10-20T12:47:37Z</time>
      </trkpt>
      <trkpt lat="43.4801" lon="2.39243">
        <ele>573.08</ele>
        <time>2018-10-20T12:47:46Z</time>
      </trkpt>
      <trkpt lat="43.48011" lon="2.3924">
        <ele>573.08</ele>
        <time>2018-10-20T12:48:03Z</time>
      </trkpt>
      <trkpt lat="43.48007" lon="2.39244">
        <ele>573.56</ele>
        <time>2018-10-20T12:48:10Z</time>
      </trkpt>
      <trkpt lat="43.48003" lon="2.39261">
        <ele>575.49</ele>
        <time>2018-10-20T12:48:25Z</time>
      </trkpt>
      <trkpt lat="43.47996" lon="2.3928">
        <ele>576.93</ele>
        <time>2018-10-20T12:48:40Z</time>
      </trkpt>
      <trkpt lat="43.47994" lon="2.39286">
        <ele>577.89</ele>
        <time>2018-10-20T12:49:15Z</time>
      </trkpt>
      <trkpt lat="43.47992" lon="2.39292">
        <ele>578.37</ele>
        <time>2018-10-20T12:49:34Z</time>
      </trkpt>
      <trkpt lat="43.47989" lon="2.39297">
        <ele>579.33</ele>
        <time>2018-10-20T12:49:49Z</time>
      </trkpt>
      <trkpt lat="43.47987" lon="2.39308">
        <ele>580.29</ele>
        <time>2018-10-20T12:50:03Z</time>
      </trkpt>
      <trkpt lat="43.47981" lon="2.39318">
        <ele>581.25</ele>
        <time>2018-10-20T12:50:16Z</time>
      </trkpt>
      <trkpt lat="43.47972" lon="2.39322">
        <ele>581.73</ele>
        <time>2018-10-20T12:50:50Z</time>
      </trkpt>
      <trkpt lat="43.4797" lon="2.39325">
        <ele>582.22</ele>
        <time>2018-10-20T12:51:06Z</time>
      </trkpt>
      <trkpt lat="43.47955" lon="2.39336">
        <ele>583.66</ele>
        <time>2018-10-20T12:51:21Z</time>
      </trkpt>
      <trkpt lat="43.47942" lon="2.39344">
        <ele>585.1</ele>
        <time>2018-10-20T12:51:36Z</time>
      </trkpt>
      <trkpt lat="43.47931" lon="2.39353">
        <ele>586.54</ele>
        <time>2018-10-20T12:51:50Z</time>
      </trkpt>
      <trkpt lat="43.47922" lon="2.39365">
        <ele>586.54</ele>
        <time>2018-10-20T12:52:04Z</time>
      </trkpt>
      <trkpt lat="43.47913" lon="2.39377">
        <ele>586.54</ele>
        <time>2018-10-20T12:52:19Z</time>
      </trkpt>
      <trkpt lat="43.47903" lon="2.39388">
        <ele>586.54</ele>
        <time>2018-10-20T12:52:32Z</time>
      </trkpt>
      <trkpt lat="43.47894" lon="2.394">
        <ele>586.06</ele>
        <time>2018-10-20T12:52:48Z</time>
      </trkpt>
      <trkpt lat="43.47886" lon="2.39409">
        <ele>585.58</ele>
        <time>2018-10-20T12:53:02Z</time>
      </trkpt>
      <trkpt lat="43.47881" lon="2.39416">
        <ele>585.58</ele>
        <time>2018-10-20T12:53:16Z</time>
      </trkpt>
      <trkpt lat="43.4787" lon="2.3943">
        <ele>585.1</ele>
        <time>2018-10-20T12:53:31Z</time>
      </trkpt>
      <trkpt lat="43.47867" lon="2.39434">
        <ele>585.1</ele>
        <time>2018-10-20T12:53:35Z</time>
      </trkpt>
      <trkpt lat="43.47856" lon="2.39448">
        <ele>585.1</ele>
        <time>2018-10-20T12:53:50Z</time>
      </trkpt>
      <trkpt lat="43.47855" lon="2.3945">
        <ele>585.1</ele>
        <time>2018-10-20T12:53:52Z</time>
      </trkpt>
      <trkpt lat="43.4785" lon="2.39466">
        <ele>585.1</ele>
        <time>2018-10-20T12:54:06Z</time>
      </trkpt>
      <trkpt lat="43.47848" lon="2.39471">
        <ele>585.58</ele>
        <time>2018-10-20T12:54:21Z</time>
      </trkpt>
      <trkpt lat="43.47845" lon="2.3948">
        <ele>585.1</ele>
        <time>2018-10-20T12:54:34Z</time>
      </trkpt>
      <trkpt lat="43.47844" lon="2.39481">
        <ele>585.1</ele>
        <time>2018-10-20T12:54:35Z</time>
      </trkpt>
      <trkpt lat="43.47832" lon="2.39496">
        <ele>586.06</ele>
        <time>2018-10-20T12:54:49Z</time>
      </trkpt>
      <trkpt lat="43.47824" lon="2.39501">
        <ele>585.58</ele>
        <time>2018-10-20T12:55:03Z</time>
      </trkpt>
      <trkpt lat="43.47817" lon="2.39509">
        <ele>586.06</ele>
        <time>2018-10-20T12:55:18Z</time>
      </trkpt>
      <trkpt lat="43.47808" lon="2.39518">
        <ele>586.54</ele>
        <time>2018-10-20T12:55:32Z</time>
      </trkpt>
      <trkpt lat="43.47792" lon="2.39534">
        <ele>587.5</ele>
        <time>2018-10-20T12:55:52Z</time>
      </trkpt>
      <trkpt lat="43.47781" lon="2.39549">
        <ele>588.46</ele>
        <time>2018-10-20T12:56:05Z</time>
      </trkpt>
      <trkpt lat="43.47768" lon="2.39565">
        <ele>588.95</ele>
        <time>2018-10-20T12:56:21Z</time>
      </trkpt>
      <trkpt lat="43.4776" lon="2.39573">
        <ele>589.43</ele>
        <time>2018-10-20T12:56:31Z</time>
      </trkpt>
      <trkpt lat="43.4775" lon="2.39585">
        <ele>590.39</ele>
        <time>2018-10-20T12:56:45Z</time>
      </trkpt>
      <trkpt lat="43.47744" lon="2.39591">
        <ele>590.87</ele>
        <time>2018-10-20T12:57:01Z</time>
      </trkpt>
      <trkpt lat="43.4774" lon="2.39595">
        <ele>591.35</ele>
        <time>2018-10-20T12:57:07Z</time>
      </trkpt>
      <trkpt lat="43.4773" lon="2.39603">
        <ele>592.31</ele>
        <time>2018-10-20T12:57:21Z</time>
      </trkpt>
      <trkpt lat="43.47719" lon="2.39608">
        <ele>592.79</ele>
        <time>2018-10-20T12:57:35Z</time>
      </trkpt>
      <trkpt lat="43.47706" lon="2.39618">
        <ele>592.79</ele>
        <time>2018-10-20T12:57:49Z</time>
      </trkpt>
      <trkpt lat="43.47689" lon="2.39633">
        <ele>592.79</ele>
        <time>2018-10-20T12:58:05Z</time>
      </trkpt>
      <trkpt lat="43.47673" lon="2.39638">
        <ele>592.31</ele>
        <time>2018-10-20T12:58:22Z</time>
      </trkpt>
      <trkpt lat="43.47659" lon="2.3965">
        <ele>591.35</ele>
        <time>2018-10-20T12:58:37Z</time>
      </trkpt>
      <trkpt lat="43.47649" lon="2.3966">
        <ele>590.39</ele>
        <time>2018-10-20T12:58:48Z</time>
      </trkpt>
      <trkpt lat="43.47644" lon="2.39669">
        <ele>589.43</ele>
        <time>2018-10-20T12:58:57Z</time>
      </trkpt>
      <trkpt lat="43.47632" lon="2.39679">
        <ele>588.95</ele>
        <time>2018-10-20T12:59:13Z</time>
      </trkpt>
      <trkpt lat="43.47625" lon="2.39685">
        <ele>587.5</ele>
        <time>2018-10-20T12:59:27Z</time>
      </trkpt>
      <trkpt lat="43.47617" lon="2.397">
        <ele>587.5</ele>
        <time>2018-10-20T12:59:42Z</time>
      </trkpt>
      <trkpt lat="43.47611" lon="2.39723">
        <ele>587.02</ele>
        <time>2018-10-20T12:59:57Z</time>
      </trkpt>
      <trkpt lat="43.47608" lon="2.39772">
        <ele>585.58</ele>
        <time>2018-10-20T13:05:49Z</time>
      </trkpt>
      <trkpt lat="43.4761" lon="2.39793">
        <ele>584.14</ele>
        <time>2018-10-20T13:06:04Z</time>
      </trkpt>
      <trkpt lat="43.47608" lon="2.39804">
        <ele>583.66</ele>
        <time>2018-10-20T13:06:36Z</time>
      </trkpt>
      <trkpt lat="43.47608" lon="2.39813">
        <ele>582.22</ele>
        <time>2018-10-20T13:06:44Z</time>
      </trkpt>
      <trkpt lat="43.47609" lon="2.39827">
        <ele>581.25</ele>
        <time>2018-10-20T13:07:08Z</time>
      </trkpt>
      <trkpt lat="43.47615" lon="2.39833">
        <ele>582.22</ele>
        <time>2018-10-20T13:07:24Z</time>
      </trkpt>
      <trkpt lat="43.47615" lon="2.39843">
        <ele>581.25</ele>
        <time>2018-10-20T13:07:35Z</time>
      </trkpt>
      <trkpt lat="43.47616" lon="2.39847">
        <ele>581.25</ele>
        <time>2018-10-20T13:07:53Z</time>
      </trkpt>
      <trkpt lat="43.47614" lon="2.39849">
        <ele>580.77</ele>
        <time>2018-10-20T13:07:56Z</time>
      </trkpt>
      <trkpt lat="43.47616" lon="2.39863">
        <ele>580.29</ele>
        <time>2018-10-20T13:08:09Z</time>
      </trkpt>
      <trkpt lat="43.4762" lon="2.39873">
        <ele>579.81</ele>
        <time>2018-10-20T13:08:23Z</time>
      </trkpt>
      <trkpt lat="43.4762" lon="2.39878">
        <ele>579.81</ele>
        <time>2018-10-20T13:08:30Z</time>
      </trkpt>
      <trkpt lat="43.47625" lon="2.39887">
        <ele>579.33</ele>
        <time>2018-10-20T13:08:41Z</time>
      </trkpt>
      <trkpt lat="43.47631" lon="2.39906">
        <ele>578.85</ele>
        <time>2018-10-20T13:08:55Z</time>
      </trkpt>
      <trkpt lat="43.47633" lon="2.39919">
        <ele>578.37</ele>
        <time>2018-10-20T13:09:04Z</time>
      </trkpt>
      <trkpt lat="43.47633" lon="2.39925">
        <ele>578.37</ele>
        <time>2018-10-20T13:09:08Z</time>
      </trkpt>
      <trkpt lat="43.4763" lon="2.39942">
        <ele>577.89</ele>
        <time>2018-10-20T13:09:22Z</time>
      </trkpt>
      <trkpt lat="43.47623" lon="2.39968">
        <ele>577.41</ele>
        <time>2018-10-20T13:09:37Z</time>
      </trkpt>
      <trkpt lat="43.47622" lon="2.39976">
        <ele>577.41</ele>
        <time>2018-10-20T13:09:42Z</time>
      </trkpt>
      <trkpt lat="43.47615" lon="2.39997">
        <ele>576.93</ele>
        <time>2018-10-20T13:09:57Z</time>
      </trkpt>
      <trkpt lat="43.4761" lon="2.40015">
        <ele>576.93</ele>
        <time>2018-10-20T13:10:13Z</time>
      </trkpt>
      <trkpt lat="43.47605" lon="2.40037">
        <ele>576.93</ele>
        <time>2018-10-20T13:10:28Z</time>
      </trkpt>
      <trkpt lat="43.47601" lon="2.40061">
        <ele>576.93</ele>
        <time>2018-10-20T13:10:43Z</time>
      </trkpt>
      <trkpt lat="43.47599" lon="2.40089">
        <ele>577.41</ele>
        <time>2018-10-20T13:11:00Z</time>
      </trkpt>
      <trkpt lat="43.47601" lon="2.40097">
        <ele>577.41</ele>
        <time>2018-10-20T13:11:05Z</time>
      </trkpt>
      <trkpt lat="43.47601" lon="2.40105">
        <ele>578.37</ele>
        <time>2018-10-20T13:11:11Z</time>
      </trkpt>
      <trkpt lat="43.47594" lon="2.40121">
        <ele>579.33</ele>
        <time>2018-10-20T13:11:25Z</time>
      </trkpt>
      <trkpt lat="43.47593" lon="2.40128">
        <ele>579.33</ele>
        <time>2018-10-20T13:11:44Z</time>
      </trkpt>
      <trkpt lat="43.47583" lon="2.40127">
        <ele>578.85</ele>
        <time>2018-10-20T13:11:58Z</time>
      </trkpt>
      <trkpt lat="43.47575" lon="2.40129">
        <ele>578.85</ele>
        <time>2018-10-20T13:12:12Z</time>
      </trkpt>
      <trkpt lat="43.47564" lon="2.4013">
        <ele>578.37</ele>
        <time>2018-10-20T13:12:39Z</time>
      </trkpt>
      <trkpt lat="43.47559" lon="2.40123">
        <ele>576.93</ele>
        <time>2018-10-20T13:12:54Z</time>
      </trkpt>
      <trkpt lat="43.47554" lon="2.40107">
        <ele>575.01</ele>
        <time>2018-10-20T13:13:07Z</time>
      </trkpt>
      <trkpt lat="43.47558" lon="2.40088">
        <ele>574.04</ele>
        <time>2018-10-20T13:13:21Z</time>
      </trkpt>
      <trkpt lat="43.47562" lon="2.40072">
        <ele>573.08</ele>
        <time>2018-10-20T13:13:34Z</time>
      </trkpt>
      <trkpt lat="43.47566" lon="2.40048">
        <ele>572.6</ele>
        <time>2018-10-20T13:13:50Z</time>
      </trkpt>
      <trkpt lat="43.47569" lon="2.40028">
        <ele>571.64</ele>
        <time>2018-10-20T13:14:04Z</time>
      </trkpt>
      <trkpt lat="43.47569" lon="2.40024">
        <ele>571.64</ele>
        <time>2018-10-20T13:14:07Z</time>
      </trkpt>
      <trkpt lat="43.47572" lon="2.40017">
        <ele>571.64</ele>
        <time>2018-10-20T13:14:12Z</time>
      </trkpt>
      <trkpt lat="43.47572" lon="2.40009">
        <ele>571.16</ele>
        <time>2018-10-20T13:14:16Z</time>
      </trkpt>
      <trkpt lat="43.47579" lon="2.3999">
        <ele>570.2</ele>
        <time>2018-10-20T13:14:30Z</time>
      </trkpt>
      <trkpt lat="43.47584" lon="2.39968">
        <ele>569.72</ele>
        <time>2018-10-20T13:14:46Z</time>
      </trkpt>
      <trkpt lat="43.47586" lon="2.39952">
        <ele>569.24</ele>
        <time>2018-10-20T13:14:56Z</time>
      </trkpt>
      <trkpt lat="43.47585" lon="2.39942">
        <ele>568.76</ele>
        <time>2018-10-20T13:15:02Z</time>
      </trkpt>
      <trkpt lat="43.47574" lon="2.39904">
        <ele>567.8</ele>
        <time>2018-10-20T13:18:33Z</time>
      </trkpt>
      <trkpt lat="43.47568" lon="2.39873">
        <ele>567.32</ele>
        <time>2018-10-20T13:19:32Z</time>
      </trkpt>
      <trkpt lat="43.47563" lon="2.39859">
        <ele>566.35</ele>
        <time>2018-10-20T13:19:46Z</time>
      </trkpt>
      <trkpt lat="43.47558" lon="2.39836">
        <ele>565.39</ele>
        <time>2018-10-20T13:20:04Z</time>
      </trkpt>
      <trkpt lat="43.47552" lon="2.39815">
        <ele>564.43</ele>
        <time>2018-10-20T13:20:21Z</time>
      </trkpt>
      <trkpt lat="43.47546" lon="2.39799">
        <ele>562.99</ele>
        <time>2018-10-20T13:20:37Z</time>
      </trkpt>
      <trkpt lat="43.47534" lon="2.39788">
        <ele>559.14</ele>
        <time>2018-10-20T13:21:21Z</time>
      </trkpt>
      <trkpt lat="43.47531" lon="2.3981">
        <ele>558.18</ele>
        <time>2018-10-20T13:21:39Z</time>
      </trkpt>
      <trkpt lat="43.47532" lon="2.39818">
        <ele>557.22</ele>
        <time>2018-10-20T13:21:56Z</time>
      </trkpt>
      <trkpt lat="43.47524" lon="2.39835">
        <ele>555.3</ele>
        <time>2018-10-20T13:22:12Z</time>
      </trkpt>
      <trkpt lat="43.47517" lon="2.39846">
        <ele>554.82</ele>
        <time>2018-10-20T13:22:24Z</time>
      </trkpt>
      <trkpt lat="43.47512" lon="2.39833">
        <ele>552.41</ele>
        <time>2018-10-20T13:22:55Z</time>
      </trkpt>
      <trkpt lat="43.4751" lon="2.39814">
        <ele>550.97</ele>
        <time>2018-10-20T13:23:11Z</time>
      </trkpt>
      <trkpt lat="43.47509" lon="2.39793">
        <ele>549.53</ele>
        <time>2018-10-20T13:23:28Z</time>
      </trkpt>
      <trkpt lat="43.47509" lon="2.39775">
        <ele>548.09</ele>
        <time>2018-10-20T13:23:43Z</time>
      </trkpt>
      <trkpt lat="43.47509" lon="2.39754">
        <ele>546.17</ele>
        <time>2018-10-20T13:24:00Z</time>
      </trkpt>
      <trkpt lat="43.47513" lon="2.39735">
        <ele>545.2</ele>
        <time>2018-10-20T13:24:16Z</time>
      </trkpt>
      <trkpt lat="43.47519" lon="2.39715">
        <ele>543.28</ele>
        <time>2018-10-20T13:24:31Z</time>
      </trkpt>
      <trkpt lat="43.47519" lon="2.39709">
        <ele>542.8</ele>
        <time>2018-10-20T13:24:44Z</time>
      </trkpt>
      <trkpt lat="43.47521" lon="2.39703">
        <ele>541.84</ele>
        <time>2018-10-20T13:25:00Z</time>
      </trkpt>
      <trkpt lat="43.4753" lon="2.39694">
        <ele>540.88</ele>
        <time>2018-10-20T13:25:17Z</time>
      </trkpt>
      <trkpt lat="43.47548" lon="2.39651">
        <ele>537.03</ele>
        <time>2018-10-20T13:26:40Z</time>
      </trkpt>
      <trkpt lat="43.47552" lon="2.39638">
        <ele>535.59</ele>
        <time>2018-10-20T13:26:56Z</time>
      </trkpt>
      <trkpt lat="43.47556" lon="2.39625">
        <ele>534.63</ele>
        <time>2018-10-20T13:27:10Z</time>
      </trkpt>
      <trkpt lat="43.47562" lon="2.39615">
        <ele>533.19</ele>
        <time>2018-10-20T13:27:30Z</time>
      </trkpt>
      <trkpt lat="43.47574" lon="2.39602">
        <ele>531.27</ele>
        <time>2018-10-20T13:27:47Z</time>
      </trkpt>
      <trkpt lat="43.47584" lon="2.39589">
        <ele>530.3</ele>
        <time>2018-10-20T13:28:06Z</time>
      </trkpt>
      <trkpt lat="43.47598" lon="2.39574">
        <ele>528.86</ele>
        <time>2018-10-20T13:28:23Z</time>
      </trkpt>
      <trkpt lat="43.47604" lon="2.39562">
        <ele>527.42</ele>
        <time>2018-10-20T13:28:37Z</time>
      </trkpt>
      <trkpt lat="43.47608" lon="2.39545">
        <ele>526.46</ele>
        <time>2018-10-20T13:28:52Z</time>
      </trkpt>
      <trkpt lat="43.47616" lon="2.39525">
        <ele>525.5</ele>
        <time>2018-10-20T13:29:10Z</time>
      </trkpt>
      <trkpt lat="43.4762" lon="2.39506">
        <ele>523.58</ele>
        <time>2018-10-20T13:29:29Z</time>
      </trkpt>
      <trkpt lat="43.47622" lon="2.39481">
        <ele>522.61</ele>
        <time>2018-10-20T13:29:46Z</time>
      </trkpt>
      <trkpt lat="43.47626" lon="2.39463">
        <ele>520.69</ele>
        <time>2018-10-20T13:31:07Z</time>
      </trkpt>
      <trkpt lat="43.47629" lon="2.39446">
        <ele>520.21</ele>
        <time>2018-10-20T13:31:24Z</time>
      </trkpt>
      <trkpt lat="43.47633" lon="2.39431">
        <ele>518.77</ele>
        <time>2018-10-20T13:31:40Z</time>
      </trkpt>
      <trkpt lat="43.47636" lon="2.39415">
        <ele>517.81</ele>
        <time>2018-10-20T13:31:57Z</time>
      </trkpt>
      <trkpt lat="43.4764" lon="2.39399">
        <ele>516.37</ele>
        <time>2018-10-20T13:32:15Z</time>
      </trkpt>
      <trkpt lat="43.47646" lon="2.3938">
        <ele>514.92</ele>
        <time>2018-10-20T13:32:31Z</time>
      </trkpt>
      <trkpt lat="43.47637" lon="2.39362">
        <ele>512.52</ele>
        <time>2018-10-20T13:33:05Z</time>
      </trkpt>
      <trkpt lat="43.47631" lon="2.39379">
        <ele>511.56</ele>
        <time>2018-10-20T13:33:20Z</time>
      </trkpt>
      <trkpt lat="43.47627" lon="2.39389">
        <ele>510.6</ele>
        <time>2018-10-20T13:33:33Z</time>
      </trkpt>
      <trkpt lat="43.47623" lon="2.39401">
        <ele>510.12</ele>
        <time>2018-10-20T13:33:46Z</time>
      </trkpt>
      <trkpt lat="43.47617" lon="2.39418">
        <ele>509.16</ele>
        <time>2018-10-20T13:34:02Z</time>
      </trkpt>
      <trkpt lat="43.4761" lon="2.39432">
        <ele>508.67</ele>
        <time>2018-10-20T13:34:17Z</time>
      </trkpt>
      <trkpt lat="43.47601" lon="2.39451">
        <ele>507.23</ele>
        <time>2018-10-20T13:34:36Z</time>
      </trkpt>
      <trkpt lat="43.476" lon="2.3946">
        <ele>506.75</ele>
        <time>2018-10-20T13:34:54Z</time>
      </trkpt>
      <trkpt lat="43.47593" lon="2.39472">
        <ele>506.27</ele>
        <time>2018-10-20T13:35:11Z</time>
      </trkpt>
      <trkpt lat="43.47586" lon="2.39484">
        <ele>505.31</ele>
        <time>2018-10-20T13:35:26Z</time>
      </trkpt>
      <trkpt lat="43.4759" lon="2.39476">
        <ele>504.35</ele>
        <time>2018-10-20T13:35:40Z</time>
      </trkpt>
      <trkpt lat="43.47596" lon="2.39459">
        <ele>502.91</ele>
        <time>2018-10-20T13:35:57Z</time>
      </trkpt>
      <trkpt lat="43.47601" lon="2.39443">
        <ele>500.98</ele>
        <time>2018-10-20T13:36:15Z</time>
      </trkpt>
      <trkpt lat="43.47604" lon="2.39428">
        <ele>500.02</ele>
        <time>2018-10-20T13:36:28Z</time>
      </trkpt>
      <trkpt lat="43.47608" lon="2.39413">
        <ele>498.58</ele>
        <time>2018-10-20T13:36:44Z</time>
      </trkpt>
      <trkpt lat="43.4761" lon="2.39394">
        <ele>496.66</ele>
        <time>2018-10-20T13:37:00Z</time>
      </trkpt>
      <trkpt lat="43.47612" lon="2.39376">
        <ele>496.18</ele>
        <time>2018-10-20T13:37:17Z</time>
      </trkpt>
      <trkpt lat="43.47613" lon="2.39356">
        <ele>494.26</ele>
        <time>2018-10-20T13:37:35Z</time>
      </trkpt>
      <trkpt lat="43.47615" lon="2.39339">
        <ele>493.29</ele>
        <time>2018-10-20T13:37:51Z</time>
      </trkpt>
      <trkpt lat="43.47612" lon="2.39322">
        <ele>492.33</ele>
        <time>2018-10-20T13:38:06Z</time>
      </trkpt>
      <trkpt lat="43.47608" lon="2.39312">
        <ele>491.85</ele>
        <time>2018-10-20T13:38:18Z</time>
      </trkpt>
      <trkpt lat="43.47604" lon="2.39296">
        <ele>490.41</ele>
        <time>2018-10-20T13:38:33Z</time>
      </trkpt>
      <trkpt lat="43.47603" lon="2.39294">
        <ele>490.41</ele>
        <time>2018-10-20T13:38:35Z</time>
      </trkpt>
      <trkpt lat="43.47601" lon="2.39285">
        <ele>490.41</ele>
        <time>2018-10-20T13:38:42Z</time>
      </trkpt>
      <trkpt lat="43.47597" lon="2.39267">
        <ele>489.45</ele>
        <time>2018-10-20T13:38:56Z</time>
      </trkpt>
      <trkpt lat="43.47596" lon="2.39265">
        <ele>488.97</ele>
        <time>2018-10-20T13:38:58Z</time>
      </trkpt>
      <trkpt lat="43.47586" lon="2.39246">
        <ele>487.53</ele>
        <time>2018-10-20T13:39:15Z</time>
      </trkpt>
      <trkpt lat="43.47585" lon="2.39242">
        <ele>487.53</ele>
        <time>2018-10-20T13:39:18Z</time>
      </trkpt>
      <trkpt lat="43.47579" lon="2.39229">
        <ele>486.56</ele>
        <time>2018-10-20T13:39:33Z</time>
      </trkpt>
      <trkpt lat="43.47572" lon="2.39212">
        <ele>485.6</ele>
        <time>2018-10-20T13:39:50Z</time>
      </trkpt>
      <trkpt lat="43.47564" lon="2.39194">
        <ele>484.16</ele>
        <time>2018-10-20T13:40:08Z</time>
      </trkpt>
      <trkpt lat="43.47558" lon="2.39178">
        <ele>482.72</ele>
        <time>2018-10-20T13:40:23Z</time>
      </trkpt>
      <trkpt lat="43.47557" lon="2.39174">
        <ele>483.2</ele>
        <time>2018-10-20T13:40:26Z</time>
      </trkpt>
      <trkpt lat="43.47549" lon="2.39167">
        <ele>481.76</ele>
        <time>2018-10-20T13:40:38Z</time>
      </trkpt>
      <trkpt lat="43.47547" lon="2.3917">
        <ele>481.28</ele>
        <time>2018-10-20T13:40:40Z</time>
      </trkpt>
      <trkpt lat="43.47545" lon="2.39183">
        <ele>480.32</ele>
        <time>2018-10-20T13:40:49Z</time>
      </trkpt>
      <trkpt lat="43.47551" lon="2.39202">
        <ele>478.87</ele>
        <time>2018-10-20T13:41:06Z</time>
      </trkpt>
      <trkpt lat="43.47557" lon="2.39218">
        <ele>476.95</ele>
        <time>2018-10-20T13:41:20Z</time>
      </trkpt>
      <trkpt lat="43.4756" lon="2.39236">
        <ele>475.99</ele>
        <time>2018-10-20T13:41:35Z</time>
      </trkpt>
      <trkpt lat="43.47561" lon="2.3924">
        <ele>475.51</ele>
        <time>2018-10-20T13:41:45Z</time>
      </trkpt>
      <trkpt lat="43.47565" lon="2.3926">
        <ele>474.55</ele>
        <time>2018-10-20T13:42:00Z</time>
      </trkpt>
      <trkpt lat="43.4757" lon="2.39278">
        <ele>473.11</ele>
        <time>2018-10-20T13:42:16Z</time>
      </trkpt>
      <trkpt lat="43.47573" lon="2.39298">
        <ele>471.18</ele>
        <time>2018-10-20T13:42:33Z</time>
      </trkpt>
      <trkpt lat="43.47572" lon="2.39307">
        <ele>470.22</ele>
        <time>2018-10-20T13:42:46Z</time>
      </trkpt>
      <trkpt lat="43.47572" lon="2.39302">
        <ele>469.74</ele>
        <time>2018-10-20T13:42:50Z</time>
      </trkpt>
      <trkpt lat="43.47568" lon="2.39282">
        <ele>468.3</ele>
        <time>2018-10-20T13:43:06Z</time>
      </trkpt>
      <trkpt lat="43.47566" lon="2.39276">
        <ele>468.3</ele>
        <time>2018-10-20T13:43:10Z</time>
      </trkpt>
      <trkpt lat="43.4756" lon="2.39257">
        <ele>466.86</ele>
        <time>2018-10-20T13:43:26Z</time>
      </trkpt>
      <trkpt lat="43.47554" lon="2.39245">
        <ele>465.9</ele>
        <time>2018-10-20T13:43:40Z</time>
      </trkpt>
      <trkpt lat="43.4755" lon="2.39228">
        <ele>464.45</ele>
        <time>2018-10-20T13:43:54Z</time>
      </trkpt>
      <trkpt lat="43.47543" lon="2.39231">
        <ele>463.49</ele>
        <time>2018-10-20T13:44:09Z</time>
      </trkpt>
      <trkpt lat="43.47547" lon="2.39252">
        <ele>461.57</ele>
        <time>2018-10-20T13:44:27Z</time>
      </trkpt>
      <trkpt lat="43.47549" lon="2.39265">
        <ele>460.61</ele>
        <time>2018-10-20T13:44:39Z</time>
      </trkpt>
      <trkpt lat="43.47552" lon="2.39283">
        <ele>459.17</ele>
        <time>2018-10-20T13:44:54Z</time>
      </trkpt>
      <trkpt lat="43.47553" lon="2.39286">
        <ele>459.17</ele>
        <time>2018-10-20T13:44:56Z</time>
      </trkpt>
      <trkpt lat="43.47553" lon="2.3929">
        <ele>458.69</ele>
        <time>2018-10-20T13:44:59Z</time>
      </trkpt>
      <trkpt lat="43.47556" lon="2.39299">
        <ele>458.21</ele>
        <time>2018-10-20T13:45:07Z</time>
      </trkpt>
      <trkpt lat="43.47554" lon="2.39301">
        <ele>457.24</ele>
        <time>2018-10-20T13:45:18Z</time>
      </trkpt>
      <trkpt lat="43.47553" lon="2.39288">
        <ele>455.8</ele>
        <time>2018-10-20T13:45:29Z</time>
      </trkpt>
      <trkpt lat="43.47552" lon="2.39284">
        <ele>455.8</ele>
        <time>2018-10-20T13:45:32Z</time>
      </trkpt>
      <trkpt lat="43.47544" lon="2.39264">
        <ele>454.36</ele>
        <time>2018-10-20T13:45:49Z</time>
      </trkpt>
      <trkpt lat="43.47538" lon="2.39244">
        <ele>453.4</ele>
        <time>2018-10-20T13:46:05Z</time>
      </trkpt>
      <trkpt lat="43.4753" lon="2.39227">
        <ele>451.96</ele>
        <time>2018-10-20T13:46:21Z</time>
      </trkpt>
      <trkpt lat="43.47524" lon="2.39214">
        <ele>451.48</ele>
        <time>2018-10-20T13:46:34Z</time>
      </trkpt>
      <trkpt lat="43.47516" lon="2.39207">
        <ele>450.52</ele>
        <time>2018-10-20T13:46:43Z</time>
      </trkpt>
      <trkpt lat="43.47512" lon="2.39214">
        <ele>450.03</ele>
        <time>2018-10-20T13:46:48Z</time>
      </trkpt>
      <trkpt lat="43.47516" lon="2.39223">
        <ele>450.03</ele>
        <time>2018-10-20T13:46:57Z</time>
      </trkpt>
      <trkpt lat="43.47523" lon="2.39237">
        <ele>448.59</ele>
        <time>2018-10-20T13:47:12Z</time>
      </trkpt>
      <trkpt lat="43.47529" lon="2.39255">
        <ele>447.15</ele>
        <time>2018-10-20T13:47:27Z</time>
      </trkpt>
      <trkpt lat="43.4753" lon="2.39268">
        <ele>446.19</ele>
        <time>2018-10-20T13:47:37Z</time>
      </trkpt>
      <trkpt lat="43.47533" lon="2.39278">
        <ele>445.23</ele>
        <time>2018-10-20T13:47:46Z</time>
      </trkpt>
      <trkpt lat="43.47537" lon="2.39297">
        <ele>444.27</ele>
        <time>2018-10-20T13:48:02Z</time>
      </trkpt>
      <trkpt lat="43.47539" lon="2.39306">
        <ele>442.82</ele>
        <time>2018-10-20T13:48:14Z</time>
      </trkpt>
      <trkpt lat="43.47535" lon="2.39294">
        <ele>441.86</ele>
        <time>2018-10-20T13:48:25Z</time>
      </trkpt>
      <trkpt lat="43.47531" lon="2.39282">
        <ele>440.9</ele>
        <time>2018-10-20T13:48:36Z</time>
      </trkpt>
      <trkpt lat="43.47524" lon="2.39264">
        <ele>438.98</ele>
        <time>2018-10-20T13:48:52Z</time>
      </trkpt>
      <trkpt lat="43.47515" lon="2.39249">
        <ele>438.02</ele>
        <time>2018-10-20T13:49:07Z</time>
      </trkpt>
      <trkpt lat="43.47514" lon="2.39246">
        <ele>437.54</ele>
        <time>2018-10-20T13:49:10Z</time>
      </trkpt>
      <trkpt lat="43.47507" lon="2.39227">
        <ele>436.58</ele>
        <time>2018-10-20T13:49:26Z</time>
      </trkpt>
      <trkpt lat="43.47499" lon="2.39213">
        <ele>436.1</ele>
        <time>2018-10-20T13:49:42Z</time>
      </trkpt>
      <trkpt lat="43.47488" lon="2.39198">
        <ele>433.69</ele>
        <time>2018-10-20T13:49:58Z</time>
      </trkpt>
      <trkpt lat="43.47475" lon="2.39188">
        <ele>432.25</ele>
        <time>2018-10-20T13:50:15Z</time>
      </trkpt>
      <trkpt lat="43.47463" lon="2.39174">
        <ele>431.29</ele>
        <time>2018-10-20T13:50:30Z</time>
      </trkpt>
      <trkpt lat="43.47455" lon="2.39157">
        <ele>429.37</ele>
        <time>2018-10-20T13:50:48Z</time>
      </trkpt>
      <trkpt lat="43.47454" lon="2.39146">
        <ele>428.4</ele>
        <time>2018-10-20T13:51:00Z</time>
      </trkpt>
      <trkpt lat="43.47451" lon="2.3914">
        <ele>428.4</ele>
        <time>2018-10-20T13:51:06Z</time>
      </trkpt>
      <trkpt lat="43.47442" lon="2.39141">
        <ele>427.44</ele>
        <time>2018-10-20T13:51:16Z</time>
      </trkpt>
      <trkpt lat="43.47442" lon="2.39159">
        <ele>426.96</ele>
        <time>2018-10-20T13:51:31Z</time>
      </trkpt>
      <trkpt lat="43.47447" lon="2.39179">
        <ele>425.52</ele>
        <time>2018-10-20T13:51:49Z</time>
      </trkpt>
      <trkpt lat="43.47454" lon="2.39192">
        <ele>424.56</ele>
        <time>2018-10-20T13:52:02Z</time>
      </trkpt>
      <trkpt lat="43.47464" lon="2.39206">
        <ele>424.08</ele>
        <time>2018-10-20T13:52:16Z</time>
      </trkpt>
      <trkpt lat="43.47473" lon="2.3922">
        <ele>423.6</ele>
        <time>2018-10-20T13:52:31Z</time>
      </trkpt>
      <trkpt lat="43.47481" lon="2.39233">
        <ele>422.64</ele>
        <time>2018-10-20T13:52:45Z</time>
      </trkpt>
      <trkpt lat="43.47482" lon="2.39237">
        <ele>422.64</ele>
        <time>2018-10-20T13:52:49Z</time>
      </trkpt>
      <trkpt lat="43.47488" lon="2.39257">
        <ele>421.68</ele>
        <time>2018-10-20T13:53:06Z</time>
      </trkpt>
      <trkpt lat="43.47492" lon="2.39274">
        <ele>421.19</ele>
        <time>2018-10-20T13:53:20Z</time>
      </trkpt>
      <trkpt lat="43.47495" lon="2.3929">
        <ele>419.75</ele>
        <time>2018-10-20T13:53:34Z</time>
      </trkpt>
      <trkpt lat="43.47497" lon="2.39305">
        <ele>418.79</ele>
        <time>2018-10-20T13:53:49Z</time>
      </trkpt>
      <trkpt lat="43.47494" lon="2.39289">
        <ele>417.35</ele>
        <time>2018-10-20T13:54:03Z</time>
      </trkpt>
      <trkpt lat="43.47489" lon="2.39269">
        <ele>416.39</ele>
        <time>2018-10-20T13:54:18Z</time>
      </trkpt>
      <trkpt lat="43.47478" lon="2.39251">
        <ele>415.43</ele>
        <time>2018-10-20T13:54:37Z</time>
      </trkpt>
      <trkpt lat="43.47473" lon="2.39236">
        <ele>414.47</ele>
        <time>2018-10-20T13:54:53Z</time>
      </trkpt>
      <trkpt lat="43.47462" lon="2.39223">
        <ele>413.02</ele>
        <time>2018-10-20T13:55:08Z</time>
      </trkpt>
      <trkpt lat="43.47453" lon="2.39211">
        <ele>412.06</ele>
        <time>2018-10-20T13:55:24Z</time>
      </trkpt>
      <trkpt lat="43.47444" lon="2.392">
        <ele>410.62</ele>
        <time>2018-10-20T13:55:42Z</time>
      </trkpt>
      <trkpt lat="43.47435" lon="2.3919">
        <ele>409.18</ele>
        <time>2018-10-20T13:55:59Z</time>
      </trkpt>
      <trkpt lat="43.47428" lon="2.39179">
        <ele>407.74</ele>
        <time>2018-10-20T13:56:16Z</time>
      </trkpt>
      <trkpt lat="43.47419" lon="2.39183">
        <ele>406.77</ele>
        <time>2018-10-20T13:56:32Z</time>
      </trkpt>
      <trkpt lat="43.47423" lon="2.39193">
        <ele>406.29</ele>
        <time>2018-10-20T13:56:46Z</time>
      </trkpt>
      <trkpt lat="43.4743" lon="2.392">
        <ele>405.81</ele>
        <time>2018-10-20T13:56:58Z</time>
      </trkpt>
      <trkpt lat="43.47437" lon="2.39213">
        <ele>404.37</ele>
        <time>2018-10-20T13:57:12Z</time>
      </trkpt>
      <trkpt lat="43.47444" lon="2.39226">
        <ele>403.41</ele>
        <time>2018-10-20T13:57:28Z</time>
      </trkpt>
      <trkpt lat="43.47448" lon="2.39241">
        <ele>401.97</ele>
        <time>2018-10-20T13:57:42Z</time>
      </trkpt>
      <trkpt lat="43.47452" lon="2.39254">
        <ele>401.01</ele>
        <time>2018-10-20T13:57:58Z</time>
      </trkpt>
      <trkpt lat="43.47458" lon="2.39265">
        <ele>400.05</ele>
        <time>2018-10-20T13:58:13Z</time>
      </trkpt>
      <trkpt lat="43.4746" lon="2.39278">
        <ele>399.08</ele>
        <time>2018-10-20T13:58:26Z</time>
      </trkpt>
      <trkpt lat="43.47465" lon="2.3929">
        <ele>397.64</ele>
        <time>2018-10-20T13:58:41Z</time>
      </trkpt>
      <trkpt lat="43.47464" lon="2.39299">
        <ele>396.68</ele>
        <time>2018-10-20T13:58:56Z</time>
      </trkpt>
      <trkpt lat="43.47467" lon="2.39315">
        <ele>395.24</ele>
        <time>2018-10-20T13:59:14Z</time>
      </trkpt>
      <trkpt lat="43.47464" lon="2.39316">
        <ele>394.76</ele>
        <time>2018-10-20T13:59:31Z</time>
      </trkpt>
      <trkpt lat="43.47465" lon="2.39321">
        <ele>393.32</ele>
        <time>2018-10-20T14:03:38Z</time>
      </trkpt>
      <trkpt lat="43.47463" lon="2.39315">
        <ele>393.32</ele>
        <time>2018-10-20T14:04:01Z</time>
      </trkpt>
      <trkpt lat="43.47459" lon="2.39301">
        <ele>392.84</ele>
        <time>2018-10-20T14:04:15Z</time>
      </trkpt>
      <trkpt lat="43.47456" lon="2.39287">
        <ele>392.36</ele>
        <time>2018-10-20T14:04:29Z</time>
      </trkpt>
      <trkpt lat="43.47455" lon="2.39283">
        <ele>391.87</ele>
        <time>2018-10-20T14:04:42Z</time>
      </trkpt>
      <trkpt lat="43.47442" lon="2.39246">
        <ele>390.91</ele>
        <time>2018-10-20T14:05:15Z</time>
      </trkpt>
      <trkpt lat="43.47437" lon="2.39241">
        <ele>389.95</ele>
        <time>2018-10-20T14:05:21Z</time>
      </trkpt>
      <trkpt lat="43.47427" lon="2.39232">
        <ele>389.95</ele>
        <time>2018-10-20T14:05:36Z</time>
      </trkpt>
      <trkpt lat="43.47411" lon="2.39218">
        <ele>388.51</ele>
        <time>2018-10-20T14:05:53Z</time>
      </trkpt>
      <trkpt lat="43.47402" lon="2.3921">
        <ele>388.03</ele>
        <time>2018-10-20T14:06:03Z</time>
      </trkpt>
      <trkpt lat="43.47385" lon="2.39192">
        <ele>387.55</ele>
        <time>2018-10-20T14:06:20Z</time>
      </trkpt>
      <trkpt lat="43.47378" lon="2.3918">
        <ele>387.07</ele>
        <time>2018-10-20T14:06:30Z</time>
      </trkpt>
      <trkpt lat="43.47378" lon="2.39179">
        <ele>387.07</ele>
        <time>2018-10-20T14:06:31Z</time>
      </trkpt>
      <trkpt lat="43.47376" lon="2.39164">
        <ele>386.11</ele>
        <time>2018-10-20T14:06:43Z</time>
      </trkpt>
      <trkpt lat="43.47372" lon="2.39137">
        <ele>384.66</ele>
        <time>2018-10-20T14:07:01Z</time>
      </trkpt>
      <trkpt lat="43.47375" lon="2.39113">
        <ele>383.7</ele>
        <time>2018-10-20T14:07:20Z</time>
      </trkpt>
      <trkpt lat="43.47386" lon="2.39077">
        <ele>381.78</ele>
        <time>2018-10-20T14:07:49Z</time>
      </trkpt>
      <trkpt lat="43.47394" lon="2.39056">
        <ele>380.82</ele>
        <time>2018-10-20T14:08:05Z</time>
      </trkpt>
      <trkpt lat="43.47402" lon="2.39034">
        <ele>379.86</ele>
        <time>2018-10-20T14:08:21Z</time>
      </trkpt>
      <trkpt lat="43.47407" lon="2.39021">
        <ele>379.38</ele>
        <time>2018-10-20T14:08:31Z</time>
      </trkpt>
      <trkpt lat="43.47413" lon="2.39012">
        <ele>379.38</ele>
        <time>2018-10-20T14:08:39Z</time>
      </trkpt>
      <trkpt lat="43.4743" lon="2.38997">
        <ele>377.94</ele>
        <time>2018-10-20T14:08:57Z</time>
      </trkpt>
      <trkpt lat="43.47443" lon="2.38982">
        <ele>377.45</ele>
        <time>2018-10-20T14:09:14Z</time>
      </trkpt>
      <trkpt lat="43.47454" lon="2.38971">
        <ele>376.97</ele>
        <time>2018-10-20T14:09:29Z</time>
      </trkpt>
      <trkpt lat="43.47467" lon="2.38963">
        <ele>376.97</ele>
        <time>2018-10-20T14:09:42Z</time>
      </trkpt>
      <trkpt lat="43.47519" lon="2.38952">
        <ele>375.53</ele>
        <time>2018-10-20T14:10:32Z</time>
      </trkpt>
      <trkpt lat="43.47534" lon="2.38948">
        <ele>375.05</ele>
        <time>2018-10-20T14:10:49Z</time>
      </trkpt>
      <trkpt lat="43.47552" lon="2.38942">
        <ele>374.57</ele>
        <time>2018-10-20T14:11:06Z</time>
      </trkpt>
      <trkpt lat="43.47557" lon="2.38939">
        <ele>374.09</ele>
        <time>2018-10-20T14:11:11Z</time>
      </trkpt>
      <trkpt lat="43.47565" lon="2.38934">
        <ele>374.09</ele>
        <time>2018-10-20T14:11:19Z</time>
      </trkpt>
      <trkpt lat="43.47582" lon="2.38915">
        <ele>373.13</ele>
        <time>2018-10-20T14:11:38Z</time>
      </trkpt>
      <trkpt lat="43.47592" lon="2.38899">
        <ele>372.65</ele>
        <time>2018-10-20T14:11:52Z</time>
      </trkpt>
      <trkpt lat="43.47604" lon="2.38878">
        <ele>372.17</ele>
        <time>2018-10-20T14:12:10Z</time>
      </trkpt>
      <trkpt lat="43.47606" lon="2.38866">
        <ele>372.17</ele>
        <time>2018-10-20T14:12:20Z</time>
      </trkpt>
      <trkpt lat="43.47608" lon="2.38847">
        <ele>371.69</ele>
        <time>2018-10-20T14:12:34Z</time>
      </trkpt>
      <trkpt lat="43.47611" lon="2.38835">
        <ele>371.21</ele>
        <time>2018-10-20T14:12:43Z</time>
      </trkpt>
      <trkpt lat="43.47619" lon="2.38812">
        <ele>370.73</ele>
        <time>2018-10-20T14:12:59Z</time>
      </trkpt>
      <trkpt lat="43.47624" lon="2.38788">
        <ele>370.24</ele>
        <time>2018-10-20T14:13:16Z</time>
      </trkpt>
      <trkpt lat="43.47628" lon="2.38765">
        <ele>369.76</ele>
        <time>2018-10-20T14:13:32Z</time>
      </trkpt>
      <trkpt lat="43.47634" lon="2.38742">
        <ele>369.28</ele>
        <time>2018-10-20T14:13:49Z</time>
      </trkpt>
      <trkpt lat="43.47639" lon="2.38726">
        <ele>368.32</ele>
        <time>2018-10-20T14:14:03Z</time>
      </trkpt>
      <trkpt lat="43.47655" lon="2.38697">
        <ele>367.84</ele>
        <time>2018-10-20T14:14:28Z</time>
      </trkpt>
      <trkpt lat="43.47664" lon="2.38683">
        <ele>366.88</ele>
        <time>2018-10-20T14:14:44Z</time>
      </trkpt>
      <trkpt lat="43.47671" lon="2.38675">
        <ele>366.4</ele>
        <time>2018-10-20T14:14:57Z</time>
      </trkpt>
      <trkpt lat="43.47682" lon="2.38665">
        <ele>365.92</ele>
        <time>2018-10-20T14:15:11Z</time>
      </trkpt>
      <trkpt lat="43.47699" lon="2.38645">
        <ele>364.96</ele>
        <time>2018-10-20T14:15:27Z</time>
      </trkpt>
      <trkpt lat="43.47703" lon="2.38625">
        <ele>364.48</ele>
        <time>2018-10-20T14:15:42Z</time>
      </trkpt>
      <trkpt lat="43.47698" lon="2.3862">
        <ele>364.96</ele>
        <time>2018-10-20T14:15:50Z</time>
      </trkpt>
      <trkpt lat="43.47692" lon="2.38608">
        <ele>364.96</ele>
        <time>2018-10-20T14:16:03Z</time>
      </trkpt>
      <trkpt lat="43.47692" lon="2.38594">
        <ele>365.44</ele>
        <time>2018-10-20T14:16:13Z</time>
      </trkpt>
      <trkpt lat="43.47699" lon="2.38588">
        <ele>366.4</ele>
        <time>2018-10-20T14:16:23Z</time>
      </trkpt>
      <trkpt lat="43.47704" lon="2.38568">
        <ele>367.84</ele>
        <time>2018-10-20T14:16:39Z</time>
      </trkpt>
      <trkpt lat="43.47696" lon="2.38547">
        <ele>369.76</ele>
        <time>2018-10-20T14:17:07Z</time>
      </trkpt>
      <trkpt lat="43.47689" lon="2.38543">
        <ele>370.24</ele>
        <time>2018-10-20T14:17:21Z</time>
      </trkpt>
      <trkpt lat="43.47664" lon="2.38505">
        <ele>374.09</ele>
        <time>2018-10-20T14:18:04Z</time>
      </trkpt>
      <trkpt lat="43.47641" lon="2.3845">
        <ele>377.94</ele>
        <time>2018-10-20T14:18:59Z</time>
      </trkpt>
      <trkpt lat="43.47634" lon="2.38433">
        <ele>379.38</ele>
        <time>2018-10-20T14:19:13Z</time>
      </trkpt>
      <trkpt lat="43.47629" lon="2.38425">
        <ele>379.86</ele>
        <time>2018-10-20T14:19:24Z</time>
      </trkpt>
      <trkpt lat="43.47619" lon="2.38399">
        <ele>381.3</ele>
        <time>2018-10-20T14:19:53Z</time>
      </trkpt>
      <trkpt lat="43.47614" lon="2.38386">
        <ele>381.78</ele>
        <time>2018-10-20T14:20:08Z</time>
      </trkpt>
      <trkpt lat="43.47613" lon="2.38366">
        <ele>383.22</ele>
        <time>2018-10-20T14:20:24Z</time>
      </trkpt>
      <trkpt lat="43.47612" lon="2.38362">
        <ele>383.22</ele>
        <time>2018-10-20T14:20:45Z</time>
      </trkpt>
      <trkpt lat="43.47612" lon="2.38357">
        <ele>383.22</ele>
        <time>2018-10-20T14:21:05Z</time>
      </trkpt>
      <trkpt lat="43.47617" lon="2.38351">
        <ele>381.3</ele>
        <time>2018-10-20T14:21:20Z</time>
      </trkpt>
      <trkpt lat="43.47628" lon="2.38342">
        <ele>378.9</ele>
        <time>2018-10-20T14:21:35Z</time>
      </trkpt>
      <trkpt lat="43.47636" lon="2.38334">
        <ele>378.42</ele>
        <time>2018-10-20T14:21:43Z</time>
      </trkpt>
      <trkpt lat="43.47644" lon="2.38325">
        <ele>376.97</ele>
        <time>2018-10-20T14:21:58Z</time>
      </trkpt>
      <trkpt lat="43.47649" lon="2.38318">
        <ele>375.53</ele>
        <time>2018-10-20T14:22:13Z</time>
      </trkpt>
      <trkpt lat="43.47643" lon="2.38313">
        <ele>373.13</ele>
        <time>2018-10-20T14:22:26Z</time>
      </trkpt>
      <trkpt lat="43.47634" lon="2.3831">
        <ele>370.24</ele>
        <time>2018-10-20T14:22:41Z</time>
      </trkpt>
      <trkpt lat="43.47626" lon="2.38306">
        <ele>366.88</ele>
        <time>2018-10-20T14:22:55Z</time>
      </trkpt>
      <trkpt lat="43.47617" lon="2.38298">
        <ele>364</ele>
        <time>2018-10-20T14:23:08Z</time>
      </trkpt>
      <trkpt lat="43.47605" lon="2.38274">
        <ele>359.19</ele>
        <time>2018-10-20T14:23:42Z</time>
      </trkpt>
      <trkpt lat="43.47604" lon="2.3827">
        <ele>359.19</ele>
        <time>2018-10-20T14:23:45Z</time>
      </trkpt>
      <trkpt lat="43.47599" lon="2.38245">
        <ele>357.75</ele>
        <time>2018-10-20T14:24:01Z</time>
      </trkpt>
      <trkpt lat="43.47599" lon="2.38206">
        <ele>354.86</ele>
        <time>2018-10-20T14:24:32Z</time>
      </trkpt>
      <trkpt lat="43.47598" lon="2.38185">
        <ele>353.42</ele>
        <time>2018-10-20T14:24:46Z</time>
      </trkpt>
      <trkpt lat="43.47604" lon="2.38166">
        <ele>351.5</ele>
        <time>2018-10-20T14:25:18Z</time>
      </trkpt>
      <trkpt lat="43.47621" lon="2.38128">
        <ele>346.69</ele>
        <time>2018-10-20T14:25:58Z</time>
      </trkpt>
      <trkpt lat="43.47632" lon="2.38108">
        <ele>346.21</ele>
        <time>2018-10-20T14:26:32Z</time>
      </trkpt>
      <trkpt lat="43.47643" lon="2.3809">
        <ele>346.21</ele>
        <time>2018-10-20T14:26:48Z</time>
      </trkpt>
      <trkpt lat="43.47655" lon="2.38083">
        <ele>347.17</ele>
        <time>2018-10-20T14:27:03Z</time>
      </trkpt>
      <trkpt lat="43.47676" lon="2.38077">
        <ele>346.21</ele>
        <time>2018-10-20T14:27:17Z</time>
      </trkpt>
      <trkpt lat="43.47692" lon="2.38079">
        <ele>345.73</ele>
        <time>2018-10-20T14:27:33Z</time>
      </trkpt>
      <trkpt lat="43.47706" lon="2.38088">
        <ele>343.33</ele>
        <time>2018-10-20T14:27:51Z</time>
      </trkpt>
      <trkpt lat="43.47718" lon="2.38093">
        <ele>341.89</ele>
        <time>2018-10-20T14:28:45Z</time>
      </trkpt>
      <trkpt lat="43.47738" lon="2.38096">
        <ele>340.44</ele>
        <time>2018-10-20T14:29:01Z</time>
      </trkpt>
      <trkpt lat="43.47746" lon="2.38098">
        <ele>340.44</ele>
        <time>2018-10-20T14:29:15Z</time>
      </trkpt>
      <trkpt lat="43.47748" lon="2.381">
        <ele>339.96</ele>
        <time>2018-10-20T14:29:18Z</time>
      </trkpt>
      <trkpt lat="43.47756" lon="2.38113">
        <ele>339.96</ele>
        <time>2018-10-20T14:29:30Z</time>
      </trkpt>
      <trkpt lat="43.47757" lon="2.38124">
        <ele>340.44</ele>
        <time>2018-10-20T14:29:42Z</time>
      </trkpt>
      <trkpt lat="43.47756" lon="2.38114">
        <ele>339.96</ele>
        <time>2018-10-20T14:30:06Z</time>
      </trkpt>
      <trkpt lat="43.47755" lon="2.38091">
        <ele>339.96</ele>
        <time>2018-10-20T14:30:21Z</time>
      </trkpt>
      <trkpt lat="43.47761" lon="2.38078">
        <ele>339.96</ele>
        <time>2018-10-20T14:30:29Z</time>
      </trkpt>
      <trkpt lat="43.47767" lon="2.38062">
        <ele>341.41</ele>
        <time>2018-10-20T14:30:40Z</time>
      </trkpt>
      <trkpt lat="43.4777" lon="2.38042">
        <ele>342.85</ele>
        <time>2018-10-20T14:30:55Z</time>
      </trkpt>
      <trkpt lat="43.47771" lon="2.38016">
        <ele>345.73</ele>
        <time>2018-10-20T14:31:12Z</time>
      </trkpt>
      <trkpt lat="43.47771" lon="2.38014">
        <ele>345.73</ele>
        <time>2018-10-20T14:31:13Z</time>
      </trkpt>
      <trkpt lat="43.4777" lon="2.37998">
        <ele>347.65</ele>
        <time>2018-10-20T14:31:27Z</time>
      </trkpt>
      <trkpt lat="43.47767" lon="2.37988">
        <ele>348.62</ele>
        <time>2018-10-20T14:31:35Z</time>
      </trkpt>
      <trkpt lat="43.47765" lon="2.37983">
        <ele>350.06</ele>
        <time>2018-10-20T14:31:39Z</time>
      </trkpt>
      <trkpt lat="43.47761" lon="2.37993">
        <ele>352.46</ele>
        <time>2018-10-20T14:31:53Z</time>
      </trkpt>
      <trkpt lat="43.47759" lon="2.38011">
        <ele>354.38</ele>
        <time>2018-10-20T14:32:08Z</time>
      </trkpt>
      <trkpt lat="43.4775" lon="2.38023">
        <ele>356.31</ele>
        <time>2018-10-20T14:32:23Z</time>
      </trkpt>
      <trkpt lat="43.47743" lon="2.38027">
        <ele>357.27</ele>
        <time>2018-10-20T14:32:39Z</time>
      </trkpt>
      <trkpt lat="43.47732" lon="2.38035">
        <ele>359.67</ele>
        <time>2018-10-20T14:32:55Z</time>
      </trkpt>
      <trkpt lat="43.47719" lon="2.38035">
        <ele>362.07</ele>
        <time>2018-10-20T14:33:11Z</time>
      </trkpt>
      <trkpt lat="43.47706" lon="2.38033">
        <ele>364.48</ele>
        <time>2018-10-20T14:33:29Z</time>
      </trkpt>
      <trkpt lat="43.47697" lon="2.38029">
        <ele>367.36</ele>
        <time>2018-10-20T14:33:45Z</time>
      </trkpt>
      <trkpt lat="43.47687" lon="2.38029">
        <ele>370.24</ele>
        <time>2018-10-20T14:34:05Z</time>
      </trkpt>
      <trkpt lat="43.47675" lon="2.38027">
        <ele>372.17</ele>
        <time>2018-10-20T14:34:22Z</time>
      </trkpt>
      <trkpt lat="43.47662" lon="2.38025">
        <ele>374.57</ele>
        <time>2018-10-20T14:34:38Z</time>
      </trkpt>
      <trkpt lat="43.47656" lon="2.38029">
        <ele>375.53</ele>
        <time>2018-10-20T14:34:56Z</time>
      </trkpt>
      <trkpt lat="43.47647" lon="2.38029">
        <ele>377.94</ele>
        <time>2018-10-20T14:35:43Z</time>
      </trkpt>
      <trkpt lat="43.47642" lon="2.38027">
        <ele>379.86</ele>
        <time>2018-10-20T14:35:58Z</time>
      </trkpt>
      <trkpt lat="43.47632" lon="2.38022">
        <ele>381.78</ele>
        <time>2018-10-20T14:36:11Z</time>
      </trkpt>
      <trkpt lat="43.47626" lon="2.3802">
        <ele>383.7</ele>
        <time>2018-10-20T14:36:28Z</time>
      </trkpt>
      <trkpt lat="43.47613" lon="2.38019">
        <ele>386.11</ele>
        <time>2018-10-20T14:36:45Z</time>
      </trkpt>
      <trkpt lat="43.47603" lon="2.38017">
        <ele>388.99</ele>
        <time>2018-10-20T14:37:01Z</time>
      </trkpt>
      <trkpt lat="43.4759" lon="2.38016">
        <ele>391.87</ele>
        <time>2018-10-20T14:37:17Z</time>
      </trkpt>
      <trkpt lat="43.47581" lon="2.38016">
        <ele>393.8</ele>
        <time>2018-10-20T14:37:31Z</time>
      </trkpt>
      <trkpt lat="43.47574" lon="2.38017">
        <ele>395.24</ele>
        <time>2018-10-20T14:37:45Z</time>
      </trkpt>
      <trkpt lat="43.4757" lon="2.38018">
        <ele>396.68</ele>
        <time>2018-10-20T14:37:51Z</time>
      </trkpt>
      <trkpt lat="43.47565" lon="2.38003">
        <ele>402.93</ele>
        <time>2018-10-20T14:40:50Z</time>
      </trkpt>
      <trkpt lat="43.47573" lon="2.37991">
        <ele>405.81</ele>
        <time>2018-10-20T14:41:06Z</time>
      </trkpt>
      <trkpt lat="43.4758" lon="2.37983">
        <ele>407.74</ele>
        <time>2018-10-20T14:41:17Z</time>
      </trkpt>
      <trkpt lat="43.4759" lon="2.3798">
        <ele>410.14</ele>
        <time>2018-10-20T14:41:32Z</time>
      </trkpt>
      <trkpt lat="43.476" lon="2.37973">
        <ele>412.54</ele>
        <time>2018-10-20T14:41:49Z</time>
      </trkpt>
      <trkpt lat="43.47609" lon="2.37964">
        <ele>414.95</ele>
        <time>2018-10-20T14:42:04Z</time>
      </trkpt>
      <trkpt lat="43.47608" lon="2.37956">
        <ele>417.35</ele>
        <time>2018-10-20T14:42:19Z</time>
      </trkpt>
      <trkpt lat="43.47594" lon="2.37946">
        <ele>419.75</ele>
        <time>2018-10-20T14:42:37Z</time>
      </trkpt>
      <trkpt lat="43.4758" lon="2.37945">
        <ele>422.64</ele>
        <time>2018-10-20T14:42:54Z</time>
      </trkpt>
      <trkpt lat="43.47573" lon="2.37943">
        <ele>426</ele>
        <time>2018-10-20T14:43:12Z</time>
      </trkpt>
      <trkpt lat="43.4756" lon="2.37937">
        <ele>428.4</ele>
        <time>2018-10-20T14:43:30Z</time>
      </trkpt>
      <trkpt lat="43.47566" lon="2.37939">
        <ele>433.21</ele>
        <time>2018-10-20T14:44:16Z</time>
      </trkpt>
      <trkpt lat="43.47571" lon="2.3794">
        <ele>435.61</ele>
        <time>2018-10-20T14:44:30Z</time>
      </trkpt>
      <trkpt lat="43.47574" lon="2.37928">
        <ele>438.98</ele>
        <time>2018-10-20T14:44:46Z</time>
      </trkpt>
      <trkpt lat="43.47572" lon="2.37922">
        <ele>440.9</ele>
        <time>2018-10-20T14:45:02Z</time>
      </trkpt>
      <trkpt lat="43.47571" lon="2.37917">
        <ele>441.38</ele>
        <time>2018-10-20T14:52:37Z</time>
      </trkpt>
      <trkpt lat="43.47573" lon="2.37917">
        <ele>441.38</ele>
        <time>2018-10-20T14:52:59Z</time>
      </trkpt>
      <trkpt lat="43.47575" lon="2.37918">
        <ele>441.86</ele>
        <time>2018-10-20T14:53:12Z</time>
      </trkpt>
      <trkpt lat="43.47576" lon="2.37918">
        <ele>441.86</ele>
        <time>2018-10-20T14:53:37Z</time>
      </trkpt>
      <trkpt lat="43.47578" lon="2.37917">
        <ele>442.34</ele>
        <time>2018-10-20T14:53:59Z</time>
      </trkpt>
      <trkpt lat="43.47583" lon="2.3791">
        <ele>443.31</ele>
        <time>2018-10-20T14:54:18Z</time>
      </trkpt>
      <trkpt lat="43.47583" lon="2.3791">
        <ele>443.79</ele>
        <time>2018-10-20T14:54:42Z</time>
      </trkpt>
      <trkpt lat="43.4759" lon="2.37906">
        <ele>446.19</ele>
        <time>2018-10-20T14:54:56Z</time>
      </trkpt>
      <trkpt lat="43.47594" lon="2.37899">
        <ele>447.15</ele>
        <time>2018-10-20T14:55:09Z</time>
      </trkpt>
      <trkpt lat="43.47597" lon="2.37899">
        <ele>448.11</ele>
        <time>2018-10-20T14:55:22Z</time>
      </trkpt>
      <trkpt lat="43.47606" lon="2.3789">
        <ele>451.48</ele>
        <time>2018-10-20T14:55:57Z</time>
      </trkpt>
      <trkpt lat="43.47619" lon="2.37882">
        <ele>453.88</ele>
        <time>2018-10-20T14:56:15Z</time>
      </trkpt>
      <trkpt lat="43.47616" lon="2.3788">
        <ele>455.32</ele>
        <time>2018-10-20T14:56:30Z</time>
      </trkpt>
      <trkpt lat="43.47609" lon="2.37878">
        <ele>457.24</ele>
        <time>2018-10-20T14:56:44Z</time>
      </trkpt>
      <trkpt lat="43.47604" lon="2.37874">
        <ele>459.65</ele>
        <time>2018-10-20T14:56:57Z</time>
      </trkpt>
      <trkpt lat="43.4761" lon="2.3787">
        <ele>462.05</ele>
        <time>2018-10-20T14:57:14Z</time>
      </trkpt>
      <trkpt lat="43.47613" lon="2.37868">
        <ele>463.97</ele>
        <time>2018-10-20T14:57:26Z</time>
      </trkpt>
      <trkpt lat="43.4761" lon="2.37864">
        <ele>464.45</ele>
        <time>2018-10-20T14:57:31Z</time>
      </trkpt>
      <trkpt lat="43.47605" lon="2.37863">
        <ele>466.38</ele>
        <time>2018-10-20T14:57:42Z</time>
      </trkpt>
      <trkpt lat="43.47599" lon="2.37864">
        <ele>467.82</ele>
        <time>2018-10-20T14:57:57Z</time>
      </trkpt>
      <trkpt lat="43.47589" lon="2.37866">
        <ele>470.22</ele>
        <time>2018-10-20T14:58:10Z</time>
      </trkpt>
      <trkpt lat="43.47581" lon="2.37865">
        <ele>472.14</ele>
        <time>2018-10-20T14:58:24Z</time>
      </trkpt>
      <trkpt lat="43.4758" lon="2.37865">
        <ele>472.63</ele>
        <time>2018-10-20T14:58:34Z</time>
      </trkpt>
      <trkpt lat="43.47583" lon="2.37861">
        <ele>474.07</ele>
        <time>2018-10-20T14:58:38Z</time>
      </trkpt>
      <trkpt lat="43.47585" lon="2.3786">
        <ele>474.07</ele>
        <time>2018-10-20T14:58:40Z</time>
      </trkpt>
      <trkpt lat="43.47594" lon="2.37854">
        <ele>475.99</ele>
        <time>2018-10-20T14:58:54Z</time>
      </trkpt>
      <trkpt lat="43.47594" lon="2.37853">
        <ele>476.47</ele>
        <time>2018-10-20T14:59:19Z</time>
      </trkpt>
      <trkpt lat="43.47595" lon="2.37848">
        <ele>476.47</ele>
        <time>2018-10-20T14:59:27Z</time>
      </trkpt>
      <trkpt lat="43.47594" lon="2.37845">
        <ele>477.43</ele>
        <time>2018-10-20T14:59:30Z</time>
      </trkpt>
      <trkpt lat="43.47587" lon="2.37842">
        <ele>479.35</ele>
        <time>2018-10-20T14:59:40Z</time>
      </trkpt>
      <trkpt lat="43.47576" lon="2.37844">
        <ele>481.28</ele>
        <time>2018-10-20T14:59:54Z</time>
      </trkpt>
      <trkpt lat="43.47575" lon="2.37834">
        <ele>483.2</ele>
        <time>2018-10-20T15:00:06Z</time>
      </trkpt>
      <trkpt lat="43.47562" lon="2.3783">
        <ele>485.12</ele>
        <time>2018-10-20T15:00:21Z</time>
      </trkpt>
      <trkpt lat="43.47554" lon="2.37829">
        <ele>487.53</ele>
        <time>2018-10-20T15:00:35Z</time>
      </trkpt>
      <trkpt lat="43.47544" lon="2.37816">
        <ele>488.97</ele>
        <time>2018-10-20T15:00:48Z</time>
      </trkpt>
      <trkpt lat="43.47526" lon="2.37812">
        <ele>490.41</ele>
        <time>2018-10-20T15:01:05Z</time>
      </trkpt>
      <trkpt lat="43.47518" lon="2.37814">
        <ele>491.37</ele>
        <time>2018-10-20T15:01:13Z</time>
      </trkpt>
      <trkpt lat="43.47502" lon="2.37815">
        <ele>494.26</ele>
        <time>2018-10-20T15:01:27Z</time>
      </trkpt>
      <trkpt lat="43.47505" lon="2.37814">
        <ele>496.66</ele>
        <time>2018-10-20T15:01:40Z</time>
      </trkpt>
      <trkpt lat="43.47509" lon="2.37805">
        <ele>499.06</ele>
        <time>2018-10-20T15:01:55Z</time>
      </trkpt>
      <trkpt lat="43.47506" lon="2.37791">
        <ele>500.5</ele>
        <time>2018-10-20T15:02:10Z</time>
      </trkpt>
      <trkpt lat="43.47509" lon="2.37776">
        <ele>502.43</ele>
        <time>2018-10-20T15:02:24Z</time>
      </trkpt>
      <trkpt lat="43.47503" lon="2.37758">
        <ele>503.87</ele>
        <time>2018-10-20T15:02:42Z</time>
      </trkpt>
      <trkpt lat="43.47501" lon="2.37755">
        <ele>504.35</ele>
        <time>2018-10-20T15:02:57Z</time>
      </trkpt>
    </trkseg>
  </trk>
</gpx>